PWSweather.com
Personal Weather Stations
Station Observations
EI4HQ
Cork Harbour, CobhIE

Cork HarbourCobhIE

Lat: 51.85, Lon: -8.29

Elevation: 252

Station Type: Davis Vantage Pro2

http://www.corkharbourweather.ie

High Low Average
Temperature 43.9°F6.6°C 32.4°F0.2°C 36.9°F2.7°C
Dew Point 37.6°F3.1°C 29.7°F-1.3°C 32.1°F0.1°C
Winds 8.0 mph 12.9 kmh 1.0 mph 1.6 kmh 4.0 mph SSE6.4 kmh SSE
Wind Gusts 11.0 mph17.7 kmh 2.0 mph3.2 kmh 6.0 mph9.7 kmh
Humidity 93% 71% 83%
Pressure 30.45 in1031.2 mb 30.20 in1022.7 mb -
Precipitation 0.09 in2.3 mm - -
Hour Temp Dew Point Humidity Winds Wind Gusts Pressure Precip Precip Rate Daily Precip Total
12:00 AM 36.9°F2.7°C 32.5°F0.3°C 84% 4.0 mph NNE6.4 kmh NNE 6.0 mph9.7 kmh 30.45 in1031.2 mb 0.00 in0.0 mm 0.00 in0.0 mm 0.00 in0.0 mm
12:03 AM 37.0°F2.8°C 32.5°F0.3°C 84% 4.0 mph NNE6.4 kmh NNE 6.0 mph9.7 kmh 30.45 in1031.2 mb 0.00 in0.0 mm 0.00 in0.0 mm 0.00 in0.0 mm
12:06 AM 37.0°F2.8°C 32.5°F0.3°C 84% 4.0 mph NNE6.4 kmh NNE 7.0 mph11.3 kmh 30.45 in1031.2 mb 0.00 in0.0 mm 0.00 in0.0 mm 0.00 in0.0 mm
12:09 AM 37.0°F2.8°C 32.7°F0.4°C 84% 4.0 mph NNE6.4 kmh NNE 7.0 mph11.3 kmh 30.45 in1031.2 mb 0.00 in0.0 mm 0.00 in0.0 mm 0.00 in0.0 mm
12:12 AM 37.0°F2.8°C 32.4°F0.2°C 83% 4.0 mph NNE6.4 kmh NNE 7.0 mph11.3 kmh 30.45 in1031.2 mb 0.00 in0.0 mm 0.00 in0.0 mm 0.00 in0.0 mm
12:15 AM 37.0°F2.8°C 32.4°F0.2°C 83% 4.0 mph NNE6.4 kmh NNE 6.0 mph9.7 kmh 30.45 in1031.2 mb 0.00 in0.0 mm 0.00 in0.0 mm 0.00 in0.0 mm
12:18 AM 36.9°F2.7°C 32.2°F0.1°C 83% 4.0 mph NNE6.4 kmh NNE 7.0 mph11.3 kmh 30.45 in1031.2 mb 0.00 in0.0 mm 0.00 in0.0 mm 0.00 in0.0 mm
12:21 AM 36.9°F2.7°C 32.2°F0.1°C 83% 4.0 mph NE6.4 kmh NE 7.0 mph11.3 kmh 30.45 in1031.2 mb 0.00 in0.0 mm 0.00 in0.0 mm 0.00 in0.0 mm
12:24 AM 36.7°F2.6°C 32.0°F0.0°C 83% 5.0 mph NE8.0 kmh NE 8.0 mph12.9 kmh 30.45 in1031.2 mb 0.00 in0.0 mm 0.00 in0.0 mm 0.00 in0.0 mm
12:27 AM 36.7°F2.6°C 32.0°F0.0°C 83% 5.0 mph NE8.0 kmh NE 8.0 mph12.9 kmh 30.45 in1031.2 mb 0.00 in0.0 mm 0.00 in0.0 mm 0.00 in0.0 mm
12:30 AM 36.9°F2.7°C 32.2°F0.1°C 83% 5.0 mph NE8.0 kmh NE 8.0 mph12.9 kmh 30.45 in1031.2 mb 0.00 in0.0 mm 0.00 in0.0 mm 0.00 in0.0 mm
12:33 AM 36.7°F2.6°C 32.0°F0.0°C 83% 5.0 mph NE8.0 kmh NE 7.0 mph11.3 kmh 30.45 in1031.2 mb 0.00 in0.0 mm 0.00 in0.0 mm 0.00 in0.0 mm
12:36 AM 36.7°F2.6°C 32.0°F0.0°C 83% 4.0 mph NE6.4 kmh NE 7.0 mph11.3 kmh 30.45 in1031.2 mb 0.00 in0.0 mm 0.00 in0.0 mm 0.00 in0.0 mm
12:39 AM 36.9°F2.7°C 32.2°F0.1°C 83% 4.0 mph NNE6.4 kmh NNE 7.0 mph11.3 kmh 30.45 in1031.2 mb 0.00 in0.0 mm 0.00 in0.0 mm 0.00 in0.0 mm
12:42 AM 36.7°F2.6°C 32.0°F0.0°C 83% 4.0 mph NNE6.4 kmh NNE 7.0 mph11.3 kmh 30.45 in1031.2 mb 0.00 in0.0 mm 0.00 in0.0 mm 0.00 in0.0 mm
12:45 AM 36.7°F2.6°C 32.0°F0.0°C 83% 4.0 mph NNE6.4 kmh NNE 8.0 mph12.9 kmh 30.44 in1030.8 mb 0.00 in0.0 mm 0.00 in0.0 mm 0.00 in0.0 mm
12:48 AM 36.5°F2.5°C 31.8°F-0.1°C 83% 4.0 mph NNE6.4 kmh NNE 8.0 mph12.9 kmh 30.45 in1031.2 mb 0.00 in0.0 mm 0.00 in0.0 mm 0.00 in0.0 mm
12:51 AM 36.3°F2.4°C 31.6°F-0.2°C 83% 4.0 mph NNE6.4 kmh NNE 8.0 mph12.9 kmh 30.45 in1031.2 mb 0.00 in0.0 mm 0.00 in0.0 mm 0.00 in0.0 mm
12:54 AM 36.3°F2.4°C 31.6°F-0.2°C 83% 4.0 mph NNE6.4 kmh NNE 8.0 mph12.9 kmh 30.45 in1031.2 mb 0.00 in0.0 mm 0.00 in0.0 mm 0.00 in0.0 mm
12:57 AM 36.3°F2.4°C 31.6°F-0.2°C 83% 4.0 mph NNE6.4 kmh NNE 8.0 mph12.9 kmh 30.44 in1030.8 mb 0.00 in0.0 mm 0.00 in0.0 mm 0.00 in0.0 mm
01:00 AM 36.3°F2.4°C 31.6°F-0.2°C 83% 4.0 mph NNE6.4 kmh NNE 8.0 mph12.9 kmh 30.44 in1030.8 mb 0.00 in0.0 mm 0.00 in0.0 mm 0.00 in0.0 mm
01:03 AM 36.3°F2.4°C 31.6°F-0.2°C 83% 5.0 mph NNE8.0 kmh NNE 8.0 mph12.9 kmh 30.44 in1030.8 mb 0.00 in0.0 mm 0.00 in0.0 mm 0.00 in0.0 mm
01:06 AM 36.1°F2.3°C 31.5°F-0.3°C 83% 4.0 mph NNE6.4 kmh NNE 8.0 mph12.9 kmh 30.44 in1030.8 mb 0.00 in0.0 mm 0.00 in0.0 mm 0.00 in0.0 mm
01:09 AM 36.3°F2.4°C 32.0°F0.0°C 84% 4.0 mph NNE6.4 kmh NNE 8.0 mph12.9 kmh 30.44 in1030.8 mb 0.00 in0.0 mm 0.00 in0.0 mm 0.00 in0.0 mm
01:12 AM 36.3°F2.4°C 32.0°F0.0°C 84% 4.0 mph NNE6.4 kmh NNE 6.0 mph9.7 kmh 30.44 in1030.8 mb 0.00 in0.0 mm 0.00 in0.0 mm 0.00 in0.0 mm
01:15 AM 36.3°F2.4°C 31.6°F-0.2°C 83% 4.0 mph NNE6.4 kmh NNE 7.0 mph11.3 kmh 30.44 in1030.8 mb 0.00 in0.0 mm 0.00 in0.0 mm 0.00 in0.0 mm
01:18 AM 36.3°F2.4°C 31.6°F-0.2°C 83% 4.0 mph NNE6.4 kmh NNE 7.0 mph11.3 kmh 30.44 in1030.8 mb 0.00 in0.0 mm 0.00 in0.0 mm 0.00 in0.0 mm
01:21 AM 36.3°F2.4°C 31.6°F-0.2°C 83% 4.0 mph NNE6.4 kmh NNE 7.0 mph11.3 kmh 30.44 in1030.8 mb 0.00 in0.0 mm 0.00 in0.0 mm 0.00 in0.0 mm
01:24 AM 36.3°F2.4°C 31.6°F-0.2°C 83% 4.0 mph NNE6.4 kmh NNE 5.0 mph8.0 kmh 30.44 in1030.8 mb 0.00 in0.0 mm 0.00 in0.0 mm 0.00 in0.0 mm
01:27 AM 36.3°F2.4°C 31.6°F-0.2°C 83% 4.0 mph NNE6.4 kmh NNE 5.0 mph8.0 kmh 30.44 in1030.8 mb 0.00 in0.0 mm 0.00 in0.0 mm 0.00 in0.0 mm
01:30 AM 36.1°F2.3°C 31.5°F-0.3°C 83% 4.0 mph NNE6.4 kmh NNE 6.0 mph9.7 kmh 30.44 in1030.8 mb 0.00 in0.0 mm 0.00 in0.0 mm 0.00 in0.0 mm
01:33 AM 36.1°F2.3°C 31.5°F-0.3°C 83% 4.0 mph NNE6.4 kmh NNE 6.0 mph9.7 kmh 30.44 in1030.8 mb 0.00 in0.0 mm 0.00 in0.0 mm 0.00 in0.0 mm
01:36 AM 36.1°F2.3°C 31.5°F-0.3°C 83% 4.0 mph NNE6.4 kmh NNE 6.0 mph9.7 kmh 30.44 in1030.8 mb 0.00 in0.0 mm 0.00 in0.0 mm 0.00 in0.0 mm
01:39 AM 36.1°F2.3°C 31.5°F-0.3°C 83% 3.0 mph NNE4.8 kmh NNE 6.0 mph9.7 kmh 30.44 in1030.8 mb 0.00 in0.0 mm 0.00 in0.0 mm 0.00 in0.0 mm
01:42 AM 36.1°F2.3°C 31.8°F-0.1°C 84% 3.0 mph N4.8 kmh N 5.0 mph8.0 kmh 30.44 in1030.8 mb 0.00 in0.0 mm 0.00 in0.0 mm 0.00 in0.0 mm
01:45 AM 36.1°F2.3°C 31.5°F-0.3°C 83% 3.0 mph N4.8 kmh N 5.0 mph8.0 kmh 30.44 in1030.8 mb 0.00 in0.0 mm 0.00 in0.0 mm 0.00 in0.0 mm
01:48 AM 36.1°F2.3°C 31.8°F-0.1°C 84% 4.0 mph N6.4 kmh N 5.0 mph8.0 kmh 30.44 in1030.8 mb 0.00 in0.0 mm 0.00 in0.0 mm 0.00 in0.0 mm
01:51 AM 36.0°F2.2°C 31.6°F-0.2°C 84% 4.0 mph N6.4 kmh N 5.0 mph8.0 kmh 30.44 in1030.8 mb 0.00 in0.0 mm 0.00 in0.0 mm 0.00 in0.0 mm
01:54 AM 36.0°F2.2°C 31.5°F-0.3°C 84% 4.0 mph N6.4 kmh N 5.0 mph8.0 kmh 30.43 in1030.5 mb 0.00 in0.0 mm 0.00 in0.0 mm 0.00 in0.0 mm
01:57 AM 35.8°F2.1°C 31.5°F-0.3°C 84% 4.0 mph N6.4 kmh N 5.0 mph8.0 kmh 30.44 in1030.8 mb 0.00 in0.0 mm 0.00 in0.0 mm 0.00 in0.0 mm
02:00 AM 35.8°F2.1°C 31.3°F-0.4°C 84% 4.0 mph N6.4 kmh N 5.0 mph8.0 kmh 30.44 in1030.8 mb 0.00 in0.0 mm 0.00 in0.0 mm 0.00 in0.0 mm
02:03 AM 35.8°F2.1°C 31.3°F-0.4°C 84% 3.0 mph N4.8 kmh N 5.0 mph8.0 kmh 30.44 in1030.8 mb 0.00 in0.0 mm 0.00 in0.0 mm 0.00 in0.0 mm
02:06 AM 35.8°F2.1°C 31.5°F-0.3°C 84% 4.0 mph N6.4 kmh N 6.0 mph9.7 kmh 30.43 in1030.5 mb 0.00 in0.0 mm 0.00 in0.0 mm 0.00 in0.0 mm
02:09 AM 35.8°F2.1°C 31.5°F-0.3°C 84% 4.0 mph N6.4 kmh N 6.0 mph9.7 kmh 30.43 in1030.5 mb 0.00 in0.0 mm 0.00 in0.0 mm 0.00 in0.0 mm
02:12 AM 36.0°F2.2°C 31.5°F-0.3°C 84% 5.0 mph N8.0 kmh N 6.0 mph9.7 kmh 30.43 in1030.5 mb 0.00 in0.0 mm 0.00 in0.0 mm 0.00 in0.0 mm
02:15 AM 36.0°F2.2°C 31.6°F-0.2°C 84% 5.0 mph N8.0 kmh N 6.0 mph9.7 kmh 30.44 in1030.8 mb 0.00 in0.0 mm 0.00 in0.0 mm 0.00 in0.0 mm
02:18 AM 36.1°F2.3°C 31.5°F-0.3°C 83% 5.0 mph N8.0 kmh N 8.0 mph12.9 kmh 30.44 in1030.8 mb 0.00 in0.0 mm 0.00 in0.0 mm 0.00 in0.0 mm
02:21 AM 36.1°F2.3°C 31.5°F-0.3°C 83% 5.0 mph N8.0 kmh N 8.0 mph12.9 kmh 30.43 in1030.5 mb 0.00 in0.0 mm 0.00 in0.0 mm 0.00 in0.0 mm
02:24 AM 36.1°F2.3°C 31.5°F-0.3°C 83% 5.0 mph N8.0 kmh N 8.0 mph12.9 kmh 30.43 in1030.5 mb 0.00 in0.0 mm 0.00 in0.0 mm 0.00 in0.0 mm
02:27 AM 36.1°F2.3°C 31.5°F-0.3°C 83% 5.0 mph N8.0 kmh N 8.0 mph12.9 kmh 30.43 in1030.5 mb 0.00 in0.0 mm 0.00 in0.0 mm 0.00 in0.0 mm
02:30 AM 36.1°F2.3°C 31.5°F-0.3°C 83% 5.0 mph N8.0 kmh N 7.0 mph11.3 kmh 30.43 in1030.5 mb 0.00 in0.0 mm 0.00 in0.0 mm 0.00 in0.0 mm
02:33 AM 36.0°F2.2°C 31.3°F-0.4°C 83% 4.0 mph N6.4 kmh N 7.0 mph11.3 kmh 30.43 in1030.5 mb 0.00 in0.0 mm 0.00 in0.0 mm 0.00 in0.0 mm
02:36 AM 36.0°F2.2°C 31.3°F-0.4°C 83% 4.0 mph N6.4 kmh N 6.0 mph9.7 kmh 30.43 in1030.5 mb 0.00 in0.0 mm 0.00 in0.0 mm 0.00 in0.0 mm
02:39 AM 36.1°F2.3°C 31.5°F-0.3°C 83% 4.0 mph N6.4 kmh N 6.0 mph9.7 kmh 30.43 in1030.5 mb 0.00 in0.0 mm 0.00 in0.0 mm 0.00 in0.0 mm
02:42 AM 36.1°F2.3°C 31.5°F-0.3°C 83% 4.0 mph NNE6.4 kmh NNE 6.0 mph9.7 kmh 30.43 in1030.5 mb 0.00 in0.0 mm 0.00 in0.0 mm 0.00 in0.0 mm
02:45 AM 36.1°F2.3°C 31.5°F-0.3°C 83% 4.0 mph N6.4 kmh N 7.0 mph11.3 kmh 30.43 in1030.5 mb 0.00 in0.0 mm 0.00 in0.0 mm 0.00 in0.0 mm
02:48 AM 36.1°F2.3°C 31.3°F-0.4°C 82% 4.0 mph N6.4 kmh N 7.0 mph11.3 kmh 30.43 in1030.5 mb 0.00 in0.0 mm 0.00 in0.0 mm 0.00 in0.0 mm
02:51 AM 36.1°F2.3°C 31.1°F-0.5°C 82% 4.0 mph NNE6.4 kmh NNE 7.0 mph11.3 kmh 30.43 in1030.5 mb 0.00 in0.0 mm 0.00 in0.0 mm 0.00 in0.0 mm
02:54 AM 36.1°F2.3°C 31.1°F-0.5°C 82% 4.0 mph NNE6.4 kmh NNE 5.0 mph8.0 kmh 30.43 in1030.5 mb 0.00 in0.0 mm 0.00 in0.0 mm 0.00 in0.0 mm
02:57 AM 36.1°F2.3°C 31.1°F-0.5°C 82% 4.0 mph N6.4 kmh N 5.0 mph8.0 kmh 30.43 in1030.5 mb 0.00 in0.0 mm 0.00 in0.0 mm 0.00 in0.0 mm
03:00 AM 36.1°F2.3°C 31.1°F-0.5°C 82% 4.0 mph N6.4 kmh N 6.0 mph9.7 kmh 30.43 in1030.5 mb 0.00 in0.0 mm 0.00 in0.0 mm 0.00 in0.0 mm
03:03 AM 36.1°F2.3°C 31.1°F-0.5°C 82% 4.0 mph N6.4 kmh N 6.0 mph9.7 kmh 30.43 in1030.5 mb 0.00 in0.0 mm 0.00 in0.0 mm 0.00 in0.0 mm
03:06 AM 36.0°F2.2°C 31.1°F-0.5°C 82% 4.0 mph N6.4 kmh N 7.0 mph11.3 kmh 30.43 in1030.5 mb 0.00 in0.0 mm 0.00 in0.0 mm 0.00 in0.0 mm
03:09 AM 36.0°F2.2°C 31.3°F-0.4°C 83% 4.0 mph N6.4 kmh N 7.0 mph11.3 kmh 30.43 in1030.5 mb 0.00 in0.0 mm 0.00 in0.0 mm 0.00 in0.0 mm
03:12 AM 36.0°F2.2°C 31.3°F-0.4°C 83% 4.0 mph NNE6.4 kmh NNE 8.0 mph12.9 kmh 30.43 in1030.5 mb 0.00 in0.0 mm 0.00 in0.0 mm 0.00 in0.0 mm
03:15 AM 36.0°F2.2°C 30.9°F-0.6°C 82% 4.0 mph NNE6.4 kmh NNE 8.0 mph12.9 kmh 30.43 in1030.5 mb 0.00 in0.0 mm 0.00 in0.0 mm 0.00 in0.0 mm
03:18 AM 35.8°F2.1°C 30.7°F-0.7°C 82% 3.0 mph NNE4.8 kmh NNE 8.0 mph12.9 kmh 30.43 in1030.5 mb 0.00 in0.0 mm 0.00 in0.0 mm 0.00 in0.0 mm
03:21 AM 35.4°F1.9°C 30.4°F-0.9°C 82% 2.0 mph NNE3.2 kmh NNE 8.0 mph12.9 kmh 30.43 in1030.5 mb 0.00 in0.0 mm 0.00 in0.0 mm 0.00 in0.0 mm
03:24 AM 35.1°F1.7°C 30.2°F-1.0°C 82% 2.0 mph NE3.2 kmh NE 4.0 mph6.4 kmh 30.43 in1030.5 mb 0.00 in0.0 mm 0.00 in0.0 mm 0.00 in0.0 mm
03:27 AM 34.9°F1.6°C 29.8°F-1.2°C 82% 1.0 mph NE1.6 kmh NE 4.0 mph6.4 kmh 30.43 in1030.5 mb 0.00 in0.0 mm 0.00 in0.0 mm 0.00 in0.0 mm
03:30 AM 34.7°F1.5°C 30.0°F-1.1°C 83% 2.0 mph NE3.2 kmh NE 3.0 mph4.8 kmh 30.43 in1030.5 mb 0.00 in0.0 mm 0.00 in0.0 mm 0.00 in0.0 mm
03:33 AM 34.7°F1.5°C 30.0°F-1.1°C 83% 2.0 mph NE3.2 kmh NE 3.0 mph4.8 kmh 30.43 in1030.5 mb 0.00 in0.0 mm 0.00 in0.0 mm 0.00 in0.0 mm
03:36 AM 34.7°F1.5°C 30.4°F-0.9°C 84% 2.0 mph NE3.2 kmh NE 5.0 mph8.0 kmh 30.43 in1030.5 mb 0.00 in0.0 mm 0.00 in0.0 mm 0.00 in0.0 mm
03:39 AM 34.7°F1.5°C 30.4°F-0.9°C 84% 3.0 mph NNE4.8 kmh NNE 5.0 mph8.0 kmh 30.43 in1030.5 mb 0.00 in0.0 mm 0.00 in0.0 mm 0.00 in0.0 mm
03:42 AM 34.7°F1.5°C 30.7°F-0.7°C 85% 4.0 mph N6.4 kmh N 6.0 mph9.7 kmh 30.43 in1030.5 mb 0.00 in0.0 mm 0.00 in0.0 mm 0.00 in0.0 mm
03:45 AM 34.9°F1.6°C 30.9°F-0.6°C 85% 4.0 mph N6.4 kmh N 6.0 mph9.7 kmh 30.43 in1030.5 mb 0.00 in0.0 mm 0.00 in0.0 mm 0.00 in0.0 mm
03:48 AM 34.9°F1.6°C 30.9°F-0.6°C 85% 4.0 mph N6.4 kmh N 6.0 mph9.7 kmh 30.43 in1030.5 mb 0.00 in0.0 mm 0.00 in0.0 mm 0.00 in0.0 mm
03:51 AM 34.9°F1.6°C 30.6°F-0.8°C 84% 4.0 mph N6.4 kmh N 6.0 mph9.7 kmh 30.43 in1030.5 mb 0.00 in0.0 mm 0.00 in0.0 mm 0.00 in0.0 mm
03:54 AM 34.9°F1.6°C 30.6°F-0.8°C 84% 4.0 mph N6.4 kmh N 6.0 mph9.7 kmh 30.43 in1030.5 mb 0.00 in0.0 mm 0.00 in0.0 mm 0.00 in0.0 mm
03:57 AM 34.9°F1.6°C 30.4°F-0.9°C 84% 4.0 mph N6.4 kmh N 8.0 mph12.9 kmh 30.43 in1030.5 mb 0.00 in0.0 mm 0.00 in0.0 mm 0.00 in0.0 mm
04:00 AM 34.9°F1.6°C 30.4°F-0.9°C 84% 4.0 mph NNE6.4 kmh NNE 8.0 mph12.9 kmh 30.43 in1030.5 mb 0.00 in0.0 mm 0.00 in0.0 mm 0.00 in0.0 mm
04:03 AM 34.9°F1.6°C 30.4°F-0.9°C 84% 3.0 mph NNE4.8 kmh NNE 8.0 mph12.9 kmh 30.42 in1030.1 mb 0.00 in0.0 mm 0.00 in0.0 mm 0.00 in0.0 mm
04:06 AM 34.9°F1.6°C 30.4°F-0.9°C 84% 3.0 mph NNE4.8 kmh NNE 5.0 mph8.0 kmh 30.42 in1030.1 mb 0.00 in0.0 mm 0.00 in0.0 mm 0.00 in0.0 mm
04:09 AM 34.9°F1.6°C 30.4°F-0.9°C 84% 3.0 mph NNE4.8 kmh NNE 5.0 mph8.0 kmh 30.42 in1030.1 mb 0.00 in0.0 mm 0.00 in0.0 mm 0.00 in0.0 mm
04:12 AM 34.9°F1.6°C 30.9°F-0.6°C 85% 4.0 mph NNE6.4 kmh NNE 8.0 mph12.9 kmh 30.42 in1030.1 mb 0.00 in0.0 mm 0.00 in0.0 mm 0.00 in0.0 mm
04:15 AM 34.9°F1.6°C 30.6°F-0.8°C 84% 4.0 mph NNE6.4 kmh NNE 8.0 mph12.9 kmh 30.42 in1030.1 mb 0.00 in0.0 mm 0.00 in0.0 mm 0.00 in0.0 mm
04:18 AM 34.9°F1.6°C 30.6°F-0.8°C 84% 4.0 mph NNE6.4 kmh NNE 8.0 mph12.9 kmh 30.42 in1030.1 mb 0.00 in0.0 mm 0.00 in0.0 mm 0.00 in0.0 mm
04:21 AM 34.9°F1.6°C 30.6°F-0.8°C 84% 4.0 mph NNE6.4 kmh NNE 8.0 mph12.9 kmh 30.42 in1030.1 mb 0.00 in0.0 mm 0.00 in0.0 mm 0.00 in0.0 mm
04:24 AM 34.9°F1.6°C 30.4°F-0.9°C 84% 4.0 mph NNE6.4 kmh NNE 7.0 mph11.3 kmh 30.42 in1030.1 mb 0.00 in0.0 mm 0.00 in0.0 mm 0.00 in0.0 mm
04:27 AM 34.7°F1.5°C 30.4°F-0.9°C 84% 4.0 mph NNE6.4 kmh NNE 7.0 mph11.3 kmh 30.42 in1030.1 mb 0.00 in0.0 mm 0.00 in0.0 mm 0.00 in0.0 mm
04:30 AM 34.7°F1.5°C 30.4°F-0.9°C 84% 4.0 mph N6.4 kmh N 7.0 mph11.3 kmh 30.42 in1030.1 mb 0.00 in0.0 mm 0.00 in0.0 mm 0.00 in0.0 mm
04:33 AM 34.7°F1.5°C 30.4°F-0.9°C 84% 4.0 mph N6.4 kmh N 6.0 mph9.7 kmh 30.42 in1030.1 mb 0.00 in0.0 mm 0.00 in0.0 mm 0.00 in0.0 mm
04:36 AM 34.5°F1.4°C 30.2°F-1.0°C 84% 4.0 mph N6.4 kmh N 6.0 mph9.7 kmh 30.42 in1030.1 mb 0.00 in0.0 mm 0.00 in0.0 mm 0.00 in0.0 mm
04:39 AM 34.5°F1.4°C 30.2°F-1.0°C 84% 4.0 mph N6.4 kmh N 6.0 mph9.7 kmh 30.41 in1029.8 mb 0.00 in0.0 mm 0.00 in0.0 mm 0.00 in0.0 mm
04:42 AM 34.5°F1.4°C 30.2°F-1.0°C 84% 4.0 mph N6.4 kmh N 5.0 mph8.0 kmh 30.42 in1030.1 mb 0.00 in0.0 mm 0.00 in0.0 mm 0.00 in0.0 mm
04:45 AM 34.5°F1.4°C 30.2°F-1.0°C 84% 4.0 mph N6.4 kmh N 5.0 mph8.0 kmh 30.41 in1029.8 mb 0.00 in0.0 mm 0.00 in0.0 mm 0.00 in0.0 mm
04:48 AM 34.5°F1.4°C 30.2°F-1.0°C 84% 4.0 mph N6.4 kmh N 5.0 mph8.0 kmh 30.41 in1029.8 mb 0.00 in0.0 mm 0.00 in0.0 mm 0.00 in0.0 mm
04:51 AM 34.7°F1.5°C 30.4°F-0.9°C 84% 4.0 mph N6.4 kmh N 5.0 mph8.0 kmh 30.41 in1029.8 mb 0.00 in0.0 mm 0.00 in0.0 mm 0.00 in0.0 mm
04:54 AM 34.7°F1.5°C 30.4°F-0.9°C 84% 4.0 mph N6.4 kmh N 8.0 mph12.9 kmh 30.41 in1029.8 mb 0.00 in0.0 mm 0.00 in0.0 mm 0.00 in0.0 mm
04:57 AM 34.9°F1.6°C 30.4°F-0.9°C 84% 4.0 mph NNE6.4 kmh NNE 8.0 mph12.9 kmh 30.41 in1029.8 mb 0.00 in0.0 mm 0.00 in0.0 mm 0.00 in0.0 mm
05:00 AM 34.9°F1.6°C 30.6°F-0.8°C 84% 4.0 mph NNE6.4 kmh NNE 8.0 mph12.9 kmh 30.41 in1029.8 mb 0.00 in0.0 mm 0.00 in0.0 mm 0.00 in0.0 mm
05:03 AM 35.1°F1.7°C 30.7°F-0.7°C 84% 4.0 mph NNE6.4 kmh NNE 8.0 mph12.9 kmh 30.41 in1029.8 mb 0.00 in0.0 mm 0.00 in0.0 mm 0.00 in0.0 mm
05:06 AM 35.1°F1.7°C 30.7°F-0.7°C 84% 4.0 mph N6.4 kmh N 7.0 mph11.3 kmh 30.41 in1029.8 mb 0.00 in0.0 mm 0.00 in0.0 mm 0.00 in0.0 mm
05:09 AM 35.1°F1.7°C 30.7°F-0.7°C 84% 4.0 mph N6.4 kmh N 6.0 mph9.7 kmh 30.41 in1029.8 mb 0.00 in0.0 mm 0.00 in0.0 mm 0.00 in0.0 mm
05:12 AM 35.1°F1.7°C 30.7°F-0.7°C 84% 4.0 mph N6.4 kmh N 6.0 mph9.7 kmh 30.41 in1029.8 mb 0.00 in0.0 mm 0.00 in0.0 mm 0.00 in0.0 mm
05:15 AM 35.1°F1.7°C 30.7°F-0.7°C 84% 5.0 mph N8.0 kmh N 6.0 mph9.7 kmh 30.41 in1029.8 mb 0.00 in0.0 mm 0.00 in0.0 mm 0.00 in0.0 mm
05:18 AM 34.9°F1.6°C 30.7°F-0.7°C 85% 5.0 mph N8.0 kmh N 6.0 mph9.7 kmh 30.41 in1029.8 mb 0.00 in0.0 mm 0.00 in0.0 mm 0.00 in0.0 mm
05:21 AM 34.5°F1.4°C 30.6°F-0.8°C 85% 5.0 mph N8.0 kmh N 6.0 mph9.7 kmh 30.41 in1029.8 mb 0.00 in0.0 mm 0.00 in0.0 mm 0.00 in0.0 mm
05:24 AM 34.5°F1.4°C 30.7°F-0.7°C 86% 5.0 mph N8.0 kmh N 8.0 mph12.9 kmh 30.41 in1029.8 mb 0.00 in0.0 mm 0.00 in0.0 mm 0.00 in0.0 mm
05:27 AM 34.3°F1.3°C 30.6°F-0.8°C 86% 5.0 mph N8.0 kmh N 8.0 mph12.9 kmh 30.41 in1029.8 mb 0.00 in0.0 mm 0.00 in0.0 mm 0.00 in0.0 mm
05:30 AM 34.3°F1.3°C 30.6°F-0.8°C 86% 6.0 mph N9.7 kmh N 8.0 mph12.9 kmh 30.41 in1029.8 mb 0.00 in0.0 mm 0.00 in0.0 mm 0.00 in0.0 mm
05:33 AM 34.2°F1.2°C 30.7°F-0.7°C 87% 6.0 mph N9.7 kmh N 8.0 mph12.9 kmh 30.41 in1029.8 mb 0.00 in0.0 mm 0.00 in0.0 mm 0.00 in0.0 mm
05:36 AM 34.2°F1.2°C 30.7°F-0.7°C 87% 6.0 mph N9.7 kmh N 8.0 mph12.9 kmh 30.41 in1029.8 mb 0.00 in0.0 mm 0.00 in0.0 mm 0.00 in0.0 mm
05:39 AM 34.2°F1.2°C 30.6°F-0.8°C 87% 5.0 mph N8.0 kmh N 8.0 mph12.9 kmh 30.41 in1029.8 mb 0.00 in0.0 mm 0.00 in0.0 mm 0.00 in0.0 mm
05:42 AM 34.2°F1.2°C 30.7°F-0.7°C 87% 5.0 mph N8.0 kmh N 8.0 mph12.9 kmh 30.41 in1029.8 mb 0.00 in0.0 mm 0.00 in0.0 mm 0.00 in0.0 mm
05:45 AM 34.2°F1.2°C 30.9°F-0.6°C 88% 5.0 mph N8.0 kmh N 6.0 mph9.7 kmh 30.41 in1029.8 mb 0.00 in0.0 mm 0.00 in0.0 mm 0.00 in0.0 mm
05:48 AM 34.0°F1.1°C 30.6°F-0.8°C 87% 5.0 mph N8.0 kmh N 6.0 mph9.7 kmh 30.41 in1029.8 mb 0.00 in0.0 mm 0.00 in0.0 mm 0.00 in0.0 mm
05:51 AM 33.8°F1.0°C 30.6°F-0.8°C 88% 5.0 mph NNW8.0 kmh NNW 8.0 mph12.9 kmh 30.41 in1029.8 mb 0.00 in0.0 mm 0.00 in0.0 mm 0.00 in0.0 mm
05:54 AM 33.6°F0.9°C 30.6°F-0.8°C 88% 6.0 mph NNW9.7 kmh NNW 9.0 mph14.5 kmh 30.41 in1029.8 mb 0.00 in0.0 mm 0.00 in0.0 mm 0.00 in0.0 mm
05:57 AM 33.6°F0.9°C 30.6°F-0.8°C 88% 6.0 mph NNW9.7 kmh NNW 9.0 mph14.5 kmh 30.41 in1029.8 mb 0.00 in0.0 mm 0.00 in0.0 mm 0.00 in0.0 mm
06:00 AM 33.6°F0.9°C 30.7°F-0.7°C 89% 7.0 mph NNW11.3 kmh NNW 9.0 mph14.5 kmh 30.41 in1029.8 mb 0.00 in0.0 mm 0.00 in0.0 mm 0.00 in0.0 mm
06:03 AM 33.6°F0.9°C 30.7°F-0.7°C 89% 7.0 mph N11.3 kmh N 9.0 mph14.5 kmh 30.41 in1029.8 mb 0.00 in0.0 mm 0.00 in0.0 mm 0.00 in0.0 mm
06:06 AM 33.6°F0.9°C 30.7°F-0.7°C 89% 7.0 mph NNW11.3 kmh NNW 9.0 mph14.5 kmh 30.40 in1029.5 mb 0.00 in0.0 mm 0.00 in0.0 mm 0.00 in0.0 mm
06:09 AM 33.4°F0.8°C 30.6°F-0.8°C 89% 6.0 mph N9.7 kmh N 9.0 mph14.5 kmh 30.41 in1029.8 mb 0.00 in0.0 mm 0.00 in0.0 mm 0.00 in0.0 mm
06:12 AM 33.4°F0.8°C 30.6°F-0.8°C 89% 6.0 mph N9.7 kmh N 9.0 mph14.5 kmh 30.40 in1029.5 mb 0.00 in0.0 mm 0.00 in0.0 mm 0.00 in0.0 mm
06:15 AM 33.4°F0.8°C 30.6°F-0.8°C 89% 6.0 mph N9.7 kmh N 8.0 mph12.9 kmh 30.40 in1029.5 mb 0.00 in0.0 mm 0.00 in0.0 mm 0.00 in0.0 mm
06:18 AM 33.4°F0.8°C 30.6°F-0.8°C 89% 6.0 mph N9.7 kmh N 9.0 mph14.5 kmh 30.40 in1029.5 mb 0.00 in0.0 mm 0.00 in0.0 mm 0.00 in0.0 mm
06:21 AM 33.3°F0.7°C 30.4°F-0.9°C 89% 6.0 mph NNW9.7 kmh NNW 9.0 mph14.5 kmh 30.40 in1029.5 mb 0.00 in0.0 mm 0.00 in0.0 mm 0.00 in0.0 mm
06:24 AM 33.3°F0.7°C 30.4°F-0.9°C 89% 6.0 mph NNW9.7 kmh NNW 9.0 mph14.5 kmh 30.40 in1029.5 mb 0.00 in0.0 mm 0.00 in0.0 mm 0.00 in0.0 mm
06:27 AM 33.1°F0.6°C 30.2°F-1.0°C 89% 6.0 mph NNW9.7 kmh NNW 9.0 mph14.5 kmh 30.40 in1029.5 mb 0.00 in0.0 mm 0.00 in0.0 mm 0.00 in0.0 mm
06:30 AM 33.1°F0.6°C 30.4°F-0.9°C 90% 6.0 mph NNW9.7 kmh NNW 9.0 mph14.5 kmh 30.40 in1029.5 mb 0.00 in0.0 mm 0.00 in0.0 mm 0.00 in0.0 mm
06:33 AM 32.9°F0.5°C 30.0°F-1.1°C 89% 7.0 mph NNW11.3 kmh NNW 10.0 mph16.1 kmh 30.40 in1029.5 mb 0.00 in0.0 mm 0.00 in0.0 mm 0.00 in0.0 mm
06:36 AM 32.9°F0.5°C 30.2°F-1.0°C 90% 7.0 mph NNW11.3 kmh NNW 10.0 mph16.1 kmh 30.39 in1029.1 mb 0.00 in0.0 mm 0.00 in0.0 mm 0.00 in0.0 mm
06:39 AM 32.9°F0.5°C 30.2°F-1.0°C 90% 7.0 mph NNW11.3 kmh NNW 10.0 mph16.1 kmh 30.39 in1029.1 mb 0.00 in0.0 mm 0.00 in0.0 mm 0.00 in0.0 mm
06:42 AM 32.9°F0.5°C 30.2°F-1.0°C 90% 7.0 mph NNW11.3 kmh NNW 10.0 mph16.1 kmh 30.39 in1029.1 mb 0.00 in0.0 mm 0.00 in0.0 mm 0.00 in0.0 mm
06:45 AM 33.1°F0.6°C 30.6°F-0.8°C 90% 7.0 mph N11.3 kmh N 10.0 mph16.1 kmh 30.39 in1029.1 mb 0.00 in0.0 mm 0.00 in0.0 mm 0.00 in0.0 mm
06:48 AM 33.3°F0.7°C 30.6°F-0.8°C 90% 8.0 mph NNW12.9 kmh NNW 10.0 mph16.1 kmh 30.39 in1029.1 mb 0.00 in0.0 mm 0.00 in0.0 mm 0.00 in0.0 mm
06:51 AM 33.3°F0.7°C 30.6°F-0.8°C 90% 7.0 mph N11.3 kmh N 10.0 mph16.1 kmh 30.39 in1029.1 mb 0.00 in0.0 mm 0.00 in0.0 mm 0.00 in0.0 mm
06:54 AM 33.3°F0.7°C 30.7°F-0.7°C 90% 7.0 mph N11.3 kmh N 10.0 mph16.1 kmh 30.39 in1029.1 mb 0.00 in0.0 mm 0.00 in0.0 mm 0.00 in0.0 mm
06:57 AM 33.3°F0.7°C 30.4°F-0.9°C 89% 7.0 mph NNW11.3 kmh NNW 9.0 mph14.5 kmh 30.39 in1029.1 mb 0.00 in0.0 mm 0.00 in0.0 mm 0.00 in0.0 mm
07:00 AM 33.1°F0.6°C 30.2°F-1.0°C 89% 7.0 mph NNW11.3 kmh NNW 9.0 mph14.5 kmh 30.39 in1029.1 mb 0.00 in0.0 mm 0.00 in0.0 mm 0.00 in0.0 mm
07:03 AM 33.1°F0.6°C 30.2°F-1.0°C 89% 7.0 mph NNW11.3 kmh NNW 9.0 mph14.5 kmh 30.39 in1029.1 mb 0.00 in0.0 mm 0.00 in0.0 mm 0.00 in0.0 mm
07:06 AM 32.9°F0.5°C 30.0°F-1.1°C 89% 7.0 mph NNW11.3 kmh NNW 9.0 mph14.5 kmh 30.39 in1029.1 mb 0.00 in0.0 mm 0.00 in0.0 mm 0.00 in0.0 mm
07:09 AM 32.9°F0.5°C 30.0°F-1.1°C 89% 7.0 mph NNW11.3 kmh NNW 9.0 mph14.5 kmh 30.39 in1029.1 mb 0.00 in0.0 mm 0.00 in0.0 mm 0.00 in0.0 mm
07:12 AM 32.7°F0.4°C 29.8°F-1.2°C 89% 7.0 mph NNW11.3 kmh NNW 9.0 mph14.5 kmh 30.39 in1029.1 mb 0.00 in0.0 mm 0.00 in0.0 mm 0.00 in0.0 mm
07:15 AM 32.7°F0.4°C 30.0°F-1.1°C 90% 7.0 mph NNW11.3 kmh NNW 9.0 mph14.5 kmh 30.39 in1029.1 mb 0.00 in0.0 mm 0.00 in0.0 mm 0.00 in0.0 mm
07:18 AM 32.7°F0.4°C 30.2°F-1.0°C 90% 6.0 mph NNW9.7 kmh NNW 9.0 mph14.5 kmh 30.39 in1029.1 mb 0.00 in0.0 mm 0.00 in0.0 mm 0.00 in0.0 mm
07:21 AM 32.7°F0.4°C 30.2°F-1.0°C 90% 5.0 mph NNW8.0 kmh NNW 9.0 mph14.5 kmh 30.39 in1029.1 mb 0.00 in0.0 mm 0.00 in0.0 mm 0.00 in0.0 mm
07:24 AM 32.7°F0.4°C 30.2°F-1.0°C 90% 5.0 mph NNW8.0 kmh NNW 8.0 mph12.9 kmh 30.39 in1029.1 mb 0.00 in0.0 mm 0.00 in0.0 mm 0.00 in0.0 mm
07:27 AM 32.7°F0.4°C 30.0°F-1.1°C 90% 6.0 mph NNW9.7 kmh NNW 8.0 mph12.9 kmh 30.39 in1029.1 mb 0.00 in0.0 mm 0.00 in0.0 mm 0.00 in0.0 mm
07:30 AM 32.7°F0.4°C 30.0°F-1.1°C 90% 6.0 mph NNW9.7 kmh NNW 9.0 mph14.5 kmh 30.39 in1029.1 mb 0.00 in0.0 mm 0.00 in0.0 mm 0.00 in0.0 mm
07:33 AM 32.5°F0.3°C 30.2°F-1.0°C 91% 7.0 mph NNW11.3 kmh NNW 10.0 mph16.1 kmh 30.39 in1029.1 mb 0.00 in0.0 mm 0.00 in0.0 mm 0.00 in0.0 mm
07:36 AM 32.5°F0.3°C 30.2°F-1.0°C 91% 7.0 mph NNW11.3 kmh NNW 10.0 mph16.1 kmh 30.39 in1029.1 mb 0.00 in0.0 mm 0.00 in0.0 mm 0.00 in0.0 mm
07:39 AM 32.5°F0.3°C 30.2°F-1.0°C 91% 8.0 mph NNW12.9 kmh NNW 10.0 mph16.1 kmh 30.39 in1029.1 mb 0.00 in0.0 mm 0.00 in0.0 mm 0.00 in0.0 mm
07:42 AM 32.7°F0.4°C 30.4°F-0.9°C 91% 8.0 mph NNW12.9 kmh NNW 10.0 mph16.1 kmh 30.39 in1029.1 mb 0.00 in0.0 mm 0.00 in0.0 mm 0.00 in0.0 mm
07:45 AM 32.7°F0.4°C 30.4°F-0.9°C 91% 8.0 mph NNW12.9 kmh NNW 10.0 mph16.1 kmh 30.39 in1029.1 mb 0.00 in0.0 mm 0.00 in0.0 mm 0.00 in0.0 mm
07:48 AM 32.7°F0.4°C 30.4°F-0.9°C 91% 8.0 mph NNW12.9 kmh NNW 10.0 mph16.1 kmh 30.39 in1029.1 mb 0.00 in0.0 mm 0.00 in0.0 mm 0.00 in0.0 mm
07:51 AM 32.7°F0.4°C 30.4°F-0.9°C 91% 7.0 mph NNW11.3 kmh NNW 9.0 mph14.5 kmh 30.39 in1029.1 mb 0.00 in0.0 mm 0.00 in0.0 mm 0.00 in0.0 mm
07:54 AM 32.7°F0.4°C 30.4°F-0.9°C 91% 7.0 mph NNW11.3 kmh NNW 9.0 mph14.5 kmh 30.39 in1029.1 mb 0.00 in0.0 mm 0.00 in0.0 mm 0.00 in0.0 mm
07:57 AM 32.5°F0.3°C 30.2°F-1.0°C 91% 6.0 mph NNW9.7 kmh NNW 9.0 mph14.5 kmh 30.39 in1029.1 mb 0.00 in0.0 mm 0.00 in0.0 mm 0.00 in0.0 mm
08:00 AM 32.4°F0.2°C 29.8°F-1.2°C 90% 6.0 mph NNW9.7 kmh NNW 8.0 mph12.9 kmh 30.39 in1029.1 mb 0.00 in0.0 mm 0.00 in0.0 mm 0.00 in0.0 mm
08:03 AM 32.4°F0.2°C 30.0°F-1.1°C 91% 6.0 mph NNW9.7 kmh NNW 8.0 mph12.9 kmh 30.39 in1029.1 mb 0.00 in0.0 mm 0.00 in0.0 mm 0.00 in0.0 mm
08:06 AM 32.4°F0.2°C 30.0°F-1.1°C 91% 6.0 mph NNW9.7 kmh NNW 8.0 mph12.9 kmh 30.39 in1029.1 mb 0.00 in0.0 mm 0.00 in0.0 mm 0.00 in0.0 mm
08:09 AM 32.4°F0.2°C 30.0°F-1.1°C 91% 5.0 mph NNW8.0 kmh NNW 8.0 mph12.9 kmh 30.39 in1029.1 mb 0.00 in0.0 mm 0.00 in0.0 mm 0.00 in0.0 mm
08:12 AM 32.4°F0.2°C 30.0°F-1.1°C 91% 5.0 mph N8.0 kmh N 8.0 mph12.9 kmh 30.39 in1029.1 mb 0.00 in0.0 mm 0.00 in0.0 mm 0.00 in0.0 mm
08:15 AM 32.5°F0.3°C 30.2°F-1.0°C 91% 5.0 mph N8.0 kmh N 8.0 mph12.9 kmh 30.39 in1029.1 mb 0.00 in0.0 mm 0.00 in0.0 mm 0.00 in0.0 mm
08:18 AM 32.7°F0.4°C 30.4°F-0.9°C 91% 5.0 mph N8.0 kmh N 8.0 mph12.9 kmh 30.39 in1029.1 mb 0.00 in0.0 mm 0.00 in0.0 mm 0.00 in0.0 mm
08:21 AM 32.7°F0.4°C 30.4°F-0.9°C 91% 5.0 mph N8.0 kmh N 8.0 mph12.9 kmh 30.39 in1029.1 mb 0.00 in0.0 mm 0.00 in0.0 mm 0.00 in0.0 mm
08:24 AM 32.7°F0.4°C 30.4°F-0.9°C 91% 5.0 mph N8.0 kmh N 8.0 mph12.9 kmh 30.39 in1029.1 mb 0.00 in0.0 mm 0.00 in0.0 mm 0.00 in0.0 mm
08:27 AM 32.7°F0.4°C 30.4°F-0.9°C 91% 4.0 mph N6.4 kmh N 6.0 mph9.7 kmh 30.39 in1029.1 mb 0.00 in0.0 mm 0.00 in0.0 mm 0.00 in0.0 mm
08:30 AM 32.5°F0.3°C 30.0°F-1.1°C 90% 4.0 mph N6.4 kmh N 6.0 mph9.7 kmh 30.39 in1029.1 mb 0.00 in0.0 mm 0.00 in0.0 mm 0.00 in0.0 mm
08:33 AM 32.7°F0.4°C 30.4°F-0.9°C 91% 4.0 mph N6.4 kmh N 8.0 mph12.9 kmh 30.39 in1029.1 mb 0.00 in0.0 mm 0.00 in0.0 mm 0.00 in0.0 mm
08:36 AM 32.7°F0.4°C 30.0°F-1.1°C 90% 5.0 mph N8.0 kmh N 9.0 mph14.5 kmh 30.39 in1029.1 mb 0.00 in0.0 mm 0.00 in0.0 mm 0.00 in0.0 mm
08:39 AM 32.5°F0.3°C 30.0°F-1.1°C 90% 6.0 mph NNW9.7 kmh NNW 9.0 mph14.5 kmh 30.39 in1029.1 mb 0.00 in0.0 mm 0.00 in0.0 mm 0.00 in0.0 mm
08:42 AM 32.5°F0.3°C 30.2°F-1.0°C 91% 7.0 mph NNW11.3 kmh NNW 9.0 mph14.5 kmh 30.39 in1029.1 mb 0.00 in0.0 mm 0.00 in0.0 mm 0.00 in0.0 mm
08:45 AM 32.5°F0.3°C 30.2°F-1.0°C 91% 7.0 mph NNW11.3 kmh NNW 9.0 mph14.5 kmh 30.39 in1029.1 mb 0.00 in0.0 mm 0.00 in0.0 mm 0.00 in0.0 mm
08:48 AM 32.7°F0.4°C 30.4°F-0.9°C 91% 6.0 mph N9.7 kmh N 9.0 mph14.5 kmh 30.39 in1029.1 mb 0.00 in0.0 mm 0.00 in0.0 mm 0.00 in0.0 mm
08:51 AM 32.7°F0.4°C 30.4°F-0.9°C 91% 6.0 mph N9.7 kmh N 9.0 mph14.5 kmh 30.39 in1029.1 mb 0.00 in0.0 mm 0.00 in0.0 mm 0.00 in0.0 mm
08:54 AM 32.9°F0.5°C 30.2°F-1.0°C 90% 5.0 mph N8.0 kmh N 9.0 mph14.5 kmh 30.39 in1029.1 mb 0.00 in0.0 mm 0.00 in0.0 mm 0.00 in0.0 mm
08:57 AM 32.9°F0.5°C 30.2°F-1.0°C 90% 5.0 mph N8.0 kmh N 8.0 mph12.9 kmh 30.38 in1028.8 mb 0.00 in0.0 mm 0.00 in0.0 mm 0.00 in0.0 mm
09:00 AM 32.9°F0.5°C 30.2°F-1.0°C 90% 5.0 mph N8.0 kmh N 6.0 mph9.7 kmh 30.38 in1028.8 mb 0.00 in0.0 mm 0.00 in0.0 mm 0.00 in0.0 mm
09:03 AM 32.9°F0.5°C 30.2°F-1.0°C 90% 5.0 mph N8.0 kmh N 6.0 mph9.7 kmh 30.38 in1028.8 mb 0.00 in0.0 mm 0.00 in0.0 mm 0.00 in0.0 mm
09:06 AM 33.1°F0.6°C 30.4°F-0.9°C 90% 5.0 mph N8.0 kmh N 6.0 mph9.7 kmh 30.38 in1028.8 mb 0.00 in0.0 mm 0.00 in0.0 mm 0.00 in0.0 mm
09:09 AM 32.9°F0.5°C 30.2°F-1.0°C 90% 5.0 mph N8.0 kmh N 6.0 mph9.7 kmh 30.38 in1028.8 mb 0.00 in0.0 mm 0.00 in0.0 mm 0.00 in0.0 mm
09:12 AM 32.9°F0.5°C 30.2°F-1.0°C 90% 4.0 mph N6.4 kmh N 6.0 mph9.7 kmh 30.38 in1028.8 mb 0.00 in0.0 mm 0.00 in0.0 mm 0.00 in0.0 mm
09:15 AM 32.7°F0.4°C 29.8°F-1.2°C 89% 3.0 mph N4.8 kmh N 6.0 mph9.7 kmh 30.39 in1029.1 mb 0.00 in0.0 mm 0.00 in0.0 mm 0.00 in0.0 mm
09:18 AM 32.7°F0.4°C 29.8°F-1.2°C 89% 3.0 mph N4.8 kmh N 5.0 mph8.0 kmh 30.38 in1028.8 mb 0.00 in0.0 mm 0.00 in0.0 mm 0.00 in0.0 mm
09:21 AM 32.5°F0.3°C 29.7°F-1.3°C 89% 3.0 mph N4.8 kmh N 4.0 mph6.4 kmh 30.39 in1029.1 mb 0.00 in0.0 mm 0.00 in0.0 mm 0.00 in0.0 mm
09:24 AM 32.5°F0.3°C 29.7°F-1.3°C 89% 3.0 mph NNW4.8 kmh NNW 4.0 mph6.4 kmh 30.38 in1028.8 mb 0.00 in0.0 mm 0.00 in0.0 mm 0.00 in0.0 mm
09:27 AM 32.4°F0.2°C 29.8°F-1.2°C 90% 3.0 mph NNW4.8 kmh NNW 4.0 mph6.4 kmh 30.38 in1028.8 mb 0.00 in0.0 mm 0.00 in0.0 mm 0.00 in0.0 mm
09:30 AM 32.5°F0.3°C 29.8°F-1.2°C 90% 2.0 mph NNW3.2 kmh NNW 4.0 mph6.4 kmh 30.38 in1028.8 mb 0.00 in0.0 mm 0.00 in0.0 mm 0.00 in0.0 mm
09:33 AM 32.7°F0.4°C 30.2°F-1.0°C 90% 2.0 mph NNW3.2 kmh NNW 5.0 mph8.0 kmh 30.38 in1028.8 mb 0.00 in0.0 mm 0.00 in0.0 mm 0.00 in0.0 mm
09:36 AM 33.1°F0.6°C 30.7°F-0.7°C 91% 3.0 mph NNW4.8 kmh NNW 5.0 mph8.0 kmh 30.38 in1028.8 mb 0.00 in0.0 mm 0.00 in0.0 mm 0.00 in0.0 mm
09:39 AM 33.3°F0.7°C 30.9°F-0.6°C 91% 4.0 mph NNW6.4 kmh NNW 5.0 mph8.0 kmh 30.38 in1028.8 mb 0.00 in0.0 mm 0.00 in0.0 mm 0.00 in0.0 mm
09:42 AM 33.4°F0.8°C 30.9°F-0.6°C 90% 4.0 mph NNW6.4 kmh NNW 6.0 mph9.7 kmh 30.38 in1028.8 mb 0.00 in0.0 mm 0.00 in0.0 mm 0.00 in0.0 mm
09:45 AM 33.6°F0.9°C 31.1°F-0.5°C 90% 5.0 mph NNW8.0 kmh NNW 6.0 mph9.7 kmh 30.38 in1028.8 mb 0.00 in0.0 mm 0.00 in0.0 mm 0.00 in0.0 mm
09:48 AM 34.0°F1.1°C 31.3°F-0.4°C 90% 5.0 mph NNW8.0 kmh NNW 6.0 mph9.7 kmh 30.38 in1028.8 mb 0.00 in0.0 mm 0.00 in0.0 mm 0.00 in0.0 mm
09:51 AM 34.0°F1.1°C 31.5°F-0.3°C 90% 4.0 mph N6.4 kmh N 6.0 mph9.7 kmh 30.38 in1028.8 mb 0.00 in0.0 mm 0.00 in0.0 mm 0.00 in0.0 mm
09:54 AM 34.2°F1.2°C 31.3°F-0.4°C 89% 4.0 mph N6.4 kmh N 6.0 mph9.7 kmh 30.38 in1028.8 mb 0.00 in0.0 mm 0.00 in0.0 mm 0.00 in0.0 mm
09:57 AM 34.2°F1.2°C 31.3°F-0.4°C 89% 4.0 mph N6.4 kmh N 6.0 mph9.7 kmh 30.38 in1028.8 mb 0.00 in0.0 mm 0.00 in0.0 mm 0.00 in0.0 mm
10:00 AM 34.2°F1.2°C 31.3°F-0.4°C 89% 3.0 mph N4.8 kmh N 6.0 mph9.7 kmh 30.38 in1028.8 mb 0.00 in0.0 mm 0.00 in0.0 mm 0.00 in0.0 mm
10:03 AM 34.2°F1.2°C 31.3°F-0.4°C 89% 2.0 mph N3.2 kmh N 5.0 mph8.0 kmh 30.38 in1028.8 mb 0.00 in0.0 mm 0.00 in0.0 mm 0.00 in0.0 mm
10:06 AM 34.2°F1.2°C 31.3°F-0.4°C 89% 2.0 mph N3.2 kmh N 4.0 mph6.4 kmh 30.37 in1028.4 mb 0.00 in0.0 mm 0.00 in0.0 mm 0.00 in0.0 mm
10:09 AM 34.2°F1.2°C 31.3°F-0.4°C 89% 3.0 mph N4.8 kmh N 4.0 mph6.4 kmh 30.38 in1028.8 mb 0.00 in0.0 mm 0.00 in0.0 mm 0.00 in0.0 mm
10:12 AM 34.3°F1.3°C 31.5°F-0.3°C 89% 3.0 mph N4.8 kmh N 4.0 mph6.4 kmh 30.38 in1028.8 mb 0.00 in0.0 mm 0.00 in0.0 mm 0.00 in0.0 mm
10:15 AM 34.5°F1.4°C 31.6°F-0.2°C 89% 2.0 mph NNE3.2 kmh NNE 4.0 mph6.4 kmh 30.38 in1028.8 mb 0.00 in0.0 mm 0.00 in0.0 mm 0.00 in0.0 mm
10:18 AM 34.5°F1.4°C 31.6°F-0.2°C 89% 2.0 mph NNE3.2 kmh NNE 4.0 mph6.4 kmh 30.37 in1028.4 mb 0.00 in0.0 mm 0.00 in0.0 mm 0.00 in0.0 mm
10:21 AM 34.9°F1.6°C 31.8°F-0.1°C 89% 2.0 mph NNE3.2 kmh NNE 4.0 mph6.4 kmh 30.37 in1028.4 mb 0.00 in0.0 mm 0.00 in0.0 mm 0.00 in0.0 mm
10:24 AM 35.2°F1.8°C 32.4°F0.2°C 89% 2.0 mph NNE3.2 kmh NNE 4.0 mph6.4 kmh 30.37 in1028.4 mb 0.00 in0.0 mm 0.00 in0.0 mm 0.00 in0.0 mm
10:27 AM 35.6°F2.0°C 32.4°F0.2°C 88% 1.0 mph NE1.6 kmh NE 3.0 mph4.8 kmh 30.37 in1028.4 mb 0.00 in0.0 mm 0.00 in0.0 mm 0.00 in0.0 mm
10:30 AM 36.0°F2.2°C 33.8°F1.0°C 92% 1.0 mph NE1.6 kmh NE 3.0 mph4.8 kmh 30.37 in1028.4 mb 0.00 in0.0 mm 0.00 in0.0 mm 0.00 in0.0 mm
10:33 AM 36.1°F2.3°C 32.4°F0.2°C 86% 2.0 mph NE3.2 kmh NE 4.0 mph6.4 kmh 30.37 in1028.4 mb 0.00 in0.0 mm 0.00 in0.0 mm 0.00 in0.0 mm
10:36 AM 36.5°F2.5°C 32.4°F0.2°C 85% 2.0 mph NNE3.2 kmh NNE 4.0 mph6.4 kmh 30.37 in1028.4 mb 0.00 in0.0 mm 0.00 in0.0 mm 0.00 in0.0 mm
10:39 AM 36.7°F2.6°C 32.5°F0.3°C 85% 2.0 mph NNE3.2 kmh NNE 4.0 mph6.4 kmh 30.37 in1028.4 mb 0.00 in0.0 mm 0.00 in0.0 mm 0.00 in0.0 mm
10:42 AM 36.9°F2.7°C 32.5°F0.3°C 84% 2.0 mph NE3.2 kmh NE 4.0 mph6.4 kmh 30.37 in1028.4 mb 0.00 in0.0 mm 0.00 in0.0 mm 0.00 in0.0 mm
10:45 AM 37.0°F2.8°C 32.0°F0.0°C 82% 2.0 mph NE3.2 kmh NE 5.0 mph8.0 kmh 30.37 in1028.4 mb 0.00 in0.0 mm 0.00 in0.0 mm 0.00 in0.0 mm
10:48 AM 37.0°F2.8°C 32.2°F0.1°C 82% 2.0 mph NE3.2 kmh NE 5.0 mph8.0 kmh 30.37 in1028.4 mb 0.00 in0.0 mm 0.00 in0.0 mm 0.00 in0.0 mm
10:51 AM 37.2°F2.9°C 32.2°F0.1°C 82% 3.0 mph NE4.8 kmh NE 5.0 mph8.0 kmh 30.37 in1028.4 mb 0.00 in0.0 mm 0.00 in0.0 mm 0.00 in0.0 mm
10:54 AM 37.2°F2.9°C 32.4°F0.2°C 82% 3.0 mph NE4.8 kmh NE 5.0 mph8.0 kmh 30.37 in1028.4 mb 0.00 in0.0 mm 0.00 in0.0 mm 0.00 in0.0 mm
10:57 AM 37.4°F3.0°C 32.4°F0.2°C 82% 3.0 mph NE4.8 kmh NE 6.0 mph9.7 kmh 30.37 in1028.4 mb 0.00 in0.0 mm 0.00 in0.0 mm 0.00 in0.0 mm
11:00 AM 37.6°F3.1°C 32.4°F0.2°C 81% 3.0 mph NNE4.8 kmh NNE 7.0 mph11.3 kmh 30.37 in1028.4 mb 0.00 in0.0 mm 0.00 in0.0 mm 0.00 in0.0 mm
11:03 AM 37.8°F3.2°C 32.5°F0.3°C 81% 3.0 mph NNE4.8 kmh NNE 7.0 mph11.3 kmh 30.37 in1028.4 mb 0.00 in0.0 mm 0.00 in0.0 mm 0.00 in0.0 mm
11:06 AM 37.9°F3.3°C 32.4°F0.2°C 80% 4.0 mph NE6.4 kmh NE 7.0 mph11.3 kmh 30.37 in1028.4 mb 0.00 in0.0 mm 0.00 in0.0 mm 0.00 in0.0 mm
11:09 AM 38.1°F3.4°C 32.2°F0.1°C 79% 3.0 mph NNE4.8 kmh NNE 6.0 mph9.7 kmh 30.37 in1028.4 mb 0.00 in0.0 mm 0.00 in0.0 mm 0.00 in0.0 mm
11:12 AM 38.3°F3.5°C 32.0°F0.0°C 78% 4.0 mph NNE6.4 kmh NNE 6.0 mph9.7 kmh 30.37 in1028.4 mb 0.00 in0.0 mm 0.00 in0.0 mm 0.00 in0.0 mm
11:15 AM 38.5°F3.6°C 32.2°F0.1°C 78% 4.0 mph NNE6.4 kmh NNE 6.0 mph9.7 kmh 30.37 in1028.4 mb 0.00 in0.0 mm 0.00 in0.0 mm 0.00 in0.0 mm
11:18 AM 38.5°F3.6°C 32.2°F0.1°C 78% 4.0 mph N6.4 kmh N 6.0 mph9.7 kmh 30.37 in1028.4 mb 0.00 in0.0 mm 0.00 in0.0 mm 0.00 in0.0 mm
11:21 AM 38.7°F3.7°C 32.7°F0.4°C 79% 3.0 mph N4.8 kmh N 5.0 mph8.0 kmh 30.37 in1028.4 mb 0.00 in0.0 mm 0.00 in0.0 mm 0.00 in0.0 mm
11:24 AM 38.8°F3.8°C 32.9°F0.5°C 79% 3.0 mph NNE4.8 kmh NNE 6.0 mph9.7 kmh 30.36 in1028.1 mb 0.00 in0.0 mm 0.00 in0.0 mm 0.00 in0.0 mm
11:27 AM 38.8°F3.8°C 32.9°F0.5°C 79% 3.0 mph NE4.8 kmh NE 6.0 mph9.7 kmh 30.36 in1028.1 mb 0.00 in0.0 mm 0.00 in0.0 mm 0.00 in0.0 mm
11:30 AM 39.0°F3.9°C 32.9°F0.5°C 78% 4.0 mph NE6.4 kmh NE 6.0 mph9.7 kmh 30.36 in1028.1 mb 0.00 in0.0 mm 0.00 in0.0 mm 0.00 in0.0 mm
11:33 AM 39.2°F4.0°C 32.9°F0.5°C 78% 4.0 mph NE6.4 kmh NE 11.0 mph17.7 kmh 30.36 in1028.1 mb 0.00 in0.0 mm 0.00 in0.0 mm 0.00 in0.0 mm
11:36 AM 39.2°F4.0°C 32.5°F0.3°C 77% 5.0 mph NE8.0 kmh NE 11.0 mph17.7 kmh 30.36 in1028.1 mb 0.00 in0.0 mm 0.00 in0.0 mm 0.00 in0.0 mm
11:39 AM 39.4°F4.1°C 32.7°F0.4°C 77% 5.0 mph NE8.0 kmh NE 11.0 mph17.7 kmh 30.36 in1028.1 mb 0.00 in0.0 mm 0.00 in0.0 mm 0.00 in0.0 mm
11:42 AM 39.4°F4.1°C 32.7°F0.4°C 77% 5.0 mph NE8.0 kmh NE 9.0 mph14.5 kmh 30.36 in1028.1 mb 0.00 in0.0 mm 0.00 in0.0 mm 0.00 in0.0 mm
11:45 AM 39.4°F4.1°C 32.7°F0.4°C 77% 5.0 mph NE8.0 kmh NE 9.0 mph14.5 kmh 30.36 in1028.1 mb 0.00 in0.0 mm 0.00 in0.0 mm 0.00 in0.0 mm
11:48 AM 39.4°F4.1°C 32.7°F0.4°C 77% 5.0 mph NE8.0 kmh NE 9.0 mph14.5 kmh 30.36 in1028.1 mb 0.00 in0.0 mm 0.00 in0.0 mm 0.00 in0.0 mm
11:51 AM 39.4°F4.1°C 32.7°F0.4°C 77% 4.0 mph NE6.4 kmh NE 9.0 mph14.5 kmh 30.36 in1028.1 mb 0.00 in0.0 mm 0.00 in0.0 mm 0.00 in0.0 mm
11:54 AM 39.4°F4.1°C 32.7°F0.4°C 77% 4.0 mph NE6.4 kmh NE 9.0 mph14.5 kmh 30.35 in1027.8 mb 0.00 in0.0 mm 0.00 in0.0 mm 0.00 in0.0 mm
11:57 AM 39.4°F4.1°C 32.7°F0.4°C 77% 5.0 mph NE8.0 kmh NE 10.0 mph16.1 kmh 30.35 in1027.8 mb 0.00 in0.0 mm 0.00 in0.0 mm 0.00 in0.0 mm
12:00 PM 39.4°F4.1°C 32.7°F0.4°C 77% 6.0 mph NE9.7 kmh NE 10.0 mph16.1 kmh 30.36 in1028.1 mb 0.00 in0.0 mm 0.00 in0.0 mm 0.00 in0.0 mm
12:03 PM 39.4°F4.1°C 33.1°F0.6°C 78% 5.0 mph NE8.0 kmh NE 10.0 mph16.1 kmh 30.35 in1027.8 mb 0.00 in0.0 mm 0.00 in0.0 mm 0.00 in0.0 mm
12:06 PM 39.6°F4.2°C 33.3°F0.7°C 78% 4.0 mph NE6.4 kmh NE 10.0 mph16.1 kmh 30.35 in1027.8 mb 0.00 in0.0 mm 0.00 in0.0 mm 0.00 in0.0 mm
12:09 PM 39.6°F4.2°C 33.3°F0.7°C 78% 4.0 mph NE6.4 kmh NE 7.0 mph11.3 kmh 30.35 in1027.8 mb 0.00 in0.0 mm 0.00 in0.0 mm 0.00 in0.0 mm
12:12 PM 39.7°F4.3°C 33.4°F0.8°C 78% 4.0 mph NE6.4 kmh NE 10.0 mph16.1 kmh 30.36 in1028.1 mb 0.00 in0.0 mm 0.00 in0.0 mm 0.00 in0.0 mm
12:15 PM 39.7°F4.3°C 33.8°F1.0°C 79% 5.0 mph NE8.0 kmh NE 10.0 mph16.1 kmh 30.36 in1028.1 mb 0.00 in0.0 mm 0.00 in0.0 mm 0.00 in0.0 mm
12:18 PM 39.9°F4.4°C 34.0°F1.1°C 79% 5.0 mph NE8.0 kmh NE 10.0 mph16.1 kmh 30.36 in1028.1 mb 0.00 in0.0 mm 0.00 in0.0 mm 0.00 in0.0 mm
12:21 PM 39.9°F4.4°C 34.0°F1.1°C 79% 4.0 mph NE6.4 kmh NE 10.0 mph16.1 kmh 30.35 in1027.8 mb 0.00 in0.0 mm 0.00 in0.0 mm 0.00 in0.0 mm
12:24 PM 40.1°F4.5°C 34.2°F1.2°C 79% 5.0 mph NE8.0 kmh NE 10.0 mph16.1 kmh 30.36 in1028.1 mb 0.00 in0.0 mm 0.00 in0.0 mm 0.00 in0.0 mm
12:27 PM 40.3°F4.6°C 34.2°F1.2°C 79% 5.0 mph NE8.0 kmh NE 10.0 mph16.1 kmh 30.36 in1028.1 mb 0.00 in0.0 mm 0.00 in0.0 mm 0.00 in0.0 mm
12:30 PM 40.3°F4.6°C 34.2°F1.2°C 79% 4.0 mph NE6.4 kmh NE 9.0 mph14.5 kmh 30.35 in1027.8 mb 0.00 in0.0 mm 0.00 in0.0 mm 0.00 in0.0 mm
12:33 PM 40.1°F4.5°C 34.2°F1.2°C 79% 4.0 mph NE6.4 kmh NE 8.0 mph12.9 kmh 30.35 in1027.8 mb 0.00 in0.0 mm 0.00 in0.0 mm 0.00 in0.0 mm
12:36 PM 39.9°F4.4°C 34.0°F1.1°C 79% 4.0 mph NE6.4 kmh NE 9.0 mph14.5 kmh 30.35 in1027.8 mb 0.00 in0.0 mm 0.00 in0.0 mm 0.00 in0.0 mm
12:39 PM 39.9°F4.4°C 34.0°F1.1°C 79% 4.0 mph ENE6.4 kmh ENE 9.0 mph14.5 kmh 30.35 in1027.8 mb 0.00 in0.0 mm 0.00 in0.0 mm 0.00 in0.0 mm
12:42 PM 40.1°F4.5°C 34.3°F1.3°C 80% 4.0 mph NE6.4 kmh NE 10.0 mph16.1 kmh 30.35 in1027.8 mb 0.00 in0.0 mm 0.00 in0.0 mm 0.00 in0.0 mm
12:45 PM 40.3°F4.6°C 34.7°F1.5°C 80% 4.0 mph NE6.4 kmh NE 10.0 mph16.1 kmh 30.35 in1027.8 mb 0.00 in0.0 mm 0.00 in0.0 mm 0.00 in0.0 mm
12:48 PM 40.5°F4.7°C 35.1°F1.7°C 81% 4.0 mph NE6.4 kmh NE 10.0 mph16.1 kmh 30.35 in1027.8 mb 0.00 in0.0 mm 0.00 in0.0 mm 0.00 in0.0 mm
12:51 PM 40.5°F4.7°C 35.1°F1.7°C 81% 5.0 mph NE8.0 kmh NE 10.0 mph16.1 kmh 30.34 in1027.4 mb 0.00 in0.0 mm 0.00 in0.0 mm 0.00 in0.0 mm
12:54 PM 40.5°F4.7°C 35.1°F1.7°C 81% 5.0 mph NE8.0 kmh NE 10.0 mph16.1 kmh 30.34 in1027.4 mb 0.00 in0.0 mm 0.00 in0.0 mm 0.00 in0.0 mm
12:57 PM 40.6°F4.8°C 35.2°F1.8°C 81% 4.0 mph NE6.4 kmh NE 9.0 mph14.5 kmh 30.34 in1027.4 mb 0.00 in0.0 mm 0.00 in0.0 mm 0.00 in0.0 mm
01:00 PM 41.0°F5.0°C 35.6°F2.0°C 81% 4.0 mph ENE6.4 kmh ENE 9.0 mph14.5 kmh 30.34 in1027.4 mb 0.00 in0.0 mm 0.00 in0.0 mm 0.00 in0.0 mm
01:03 PM 41.2°F5.1°C 35.8°F2.1°C 81% 4.0 mph ENE6.4 kmh ENE 8.0 mph12.9 kmh 30.34 in1027.4 mb 0.00 in0.0 mm 0.00 in0.0 mm 0.00 in0.0 mm
01:06 PM 41.4°F5.2°C 36.0°F2.2°C 81% 4.0 mph NE6.4 kmh NE 7.0 mph11.3 kmh 30.34 in1027.4 mb 0.00 in0.0 mm 0.00 in0.0 mm 0.00 in0.0 mm
01:09 PM 41.5°F5.3°C 36.1°F2.3°C 81% 3.0 mph ENE4.8 kmh ENE 7.0 mph11.3 kmh 30.34 in1027.4 mb 0.00 in0.0 mm 0.00 in0.0 mm 0.00 in0.0 mm
01:12 PM 41.7°F5.4°C 36.3°F2.4°C 81% 3.0 mph ENE4.8 kmh ENE 7.0 mph11.3 kmh 30.34 in1027.4 mb 0.00 in0.0 mm 0.00 in0.0 mm 0.00 in0.0 mm
01:15 PM 42.1°F5.6°C 36.7°F2.6°C 81% 3.0 mph ENE4.8 kmh ENE 6.0 mph9.7 kmh 30.34 in1027.4 mb 0.00 in0.0 mm 0.00 in0.0 mm 0.00 in0.0 mm
01:18 PM 42.3°F5.7°C 36.9°F2.7°C 81% 3.0 mph E4.8 kmh E 7.0 mph11.3 kmh 30.33 in1027.1 mb 0.00 in0.0 mm 0.00 in0.0 mm 0.00 in0.0 mm
01:21 PM 42.4°F5.8°C 37.0°F2.8°C 81% 3.0 mph ESE4.8 kmh ESE 7.0 mph11.3 kmh 30.34 in1027.4 mb 0.00 in0.0 mm 0.00 in0.0 mm 0.00 in0.0 mm
01:24 PM 42.6°F5.9°C 36.9°F2.7°C 80% 3.0 mph SE4.8 kmh SE 8.0 mph12.9 kmh 30.33 in1027.1 mb 0.00 in0.0 mm 0.00 in0.0 mm 0.00 in0.0 mm
01:27 PM 42.6°F5.9°C 37.0°F2.8°C 80% 3.0 mph ESE4.8 kmh ESE 8.0 mph12.9 kmh 30.33 in1027.1 mb 0.00 in0.0 mm 0.00 in0.0 mm 0.00 in0.0 mm
01:30 PM 43.0°F6.1°C 37.2°F2.9°C 80% 3.0 mph ESE4.8 kmh ESE 8.0 mph12.9 kmh 30.33 in1027.1 mb 0.00 in0.0 mm 0.00 in0.0 mm 0.00 in0.0 mm
01:33 PM 43.0°F6.1°C 37.2°F2.9°C 80% 3.0 mph SE4.8 kmh SE 7.0 mph11.3 kmh 30.33 in1027.1 mb 0.00 in0.0 mm 0.00 in0.0 mm 0.00 in0.0 mm
01:36 PM 43.0°F6.1°C 36.9°F2.7°C 79% 3.0 mph SE4.8 kmh SE 7.0 mph11.3 kmh 30.33 in1027.1 mb 0.00 in0.0 mm 0.00 in0.0 mm 0.00 in0.0 mm
01:39 PM 43.0°F6.1°C 36.9°F2.7°C 79% 4.0 mph SE6.4 kmh SE 7.0 mph11.3 kmh 30.33 in1027.1 mb 0.00 in0.0 mm 0.00 in0.0 mm 0.00 in0.0 mm
01:42 PM 43.0°F6.1°C 37.2°F2.9°C 80% 4.0 mph SE6.4 kmh SE 7.0 mph11.3 kmh 30.32 in1026.8 mb 0.00 in0.0 mm 0.00 in0.0 mm 0.00 in0.0 mm
01:45 PM 43.2°F6.2°C 37.0°F2.8°C 79% 4.0 mph SE6.4 kmh SE 8.0 mph12.9 kmh 30.32 in1026.8 mb 0.00 in0.0 mm 0.00 in0.0 mm 0.00 in0.0 mm
01:48 PM 43.2°F6.2°C 37.0°F2.8°C 79% 4.0 mph SE6.4 kmh SE 8.0 mph12.9 kmh 30.32 in1026.8 mb 0.00 in0.0 mm 0.00 in0.0 mm 0.00 in0.0 mm
01:51 PM 43.5°F6.4°C 37.4°F3.0°C 79% 3.0 mph SE4.8 kmh SE 8.0 mph12.9 kmh 30.32 in1026.8 mb 0.00 in0.0 mm 0.00 in0.0 mm 0.00 in0.0 mm
01:54 PM 43.7°F6.5°C 37.6°F3.1°C 79% 3.0 mph SE4.8 kmh SE 7.0 mph11.3 kmh 30.32 in1026.8 mb 0.00 in0.0 mm 0.00 in0.0 mm 0.00 in0.0 mm
01:57 PM 43.7°F6.5°C 37.2°F2.9°C 78% 3.0 mph SE4.8 kmh SE 7.0 mph11.3 kmh 30.32 in1026.8 mb 0.00 in0.0 mm 0.00 in0.0 mm 0.00 in0.0 mm
02:00 PM 43.7°F6.5°C 36.7°F2.6°C 76% 3.0 mph SE4.8 kmh SE 7.0 mph11.3 kmh 30.32 in1026.8 mb 0.00 in0.0 mm 0.00 in0.0 mm 0.00 in0.0 mm
02:03 PM 43.7°F6.5°C 36.3°F2.4°C 75% 3.0 mph SE4.8 kmh SE 7.0 mph11.3 kmh 30.32 in1026.8 mb 0.00 in0.0 mm 0.00 in0.0 mm 0.00 in0.0 mm
02:06 PM 43.9°F6.6°C 36.3°F2.4°C 75% 3.0 mph SE4.8 kmh SE 7.0 mph11.3 kmh 30.31 in1026.4 mb 0.00 in0.0 mm 0.00 in0.0 mm 0.00 in0.0 mm
02:09 PM 43.9°F6.6°C 36.5°F2.5°C 75% 4.0 mph SE6.4 kmh SE 7.0 mph11.3 kmh 30.31 in1026.4 mb 0.00 in0.0 mm 0.00 in0.0 mm 0.00 in0.0 mm
02:12 PM 43.7°F6.5°C 36.0°F2.2°C 74% 4.0 mph SE6.4 kmh SE 7.0 mph11.3 kmh 30.31 in1026.4 mb 0.00 in0.0 mm 0.00 in0.0 mm 0.00 in0.0 mm
02:15 PM 43.5°F6.4°C 36.1°F2.3°C 75% 4.0 mph SE6.4 kmh SE 7.0 mph11.3 kmh 30.31 in1026.4 mb 0.00 in0.0 mm 0.00 in0.0 mm 0.00 in0.0 mm
02:18 PM 43.5°F6.4°C 36.1°F2.3°C 75% 4.0 mph SE6.4 kmh SE 7.0 mph11.3 kmh 30.31 in1026.4 mb 0.00 in0.0 mm 0.00 in0.0 mm 0.00 in0.0 mm
02:21 PM 43.5°F6.4°C 36.1°F2.3°C 75% 4.0 mph SE6.4 kmh SE 7.0 mph11.3 kmh 30.31 in1026.4 mb 0.00 in0.0 mm 0.00 in0.0 mm 0.00 in0.0 mm
02:24 PM 43.3°F6.3°C 36.0°F2.2°C 75% 3.0 mph SE4.8 kmh SE 7.0 mph11.3 kmh 30.31 in1026.4 mb 0.00 in0.0 mm 0.00 in0.0 mm 0.00 in0.0 mm
02:27 PM 43.3°F6.3°C 36.0°F2.2°C 75% 4.0 mph SE6.4 kmh SE 9.0 mph14.5 kmh 30.30 in1026.1 mb 0.00 in0.0 mm 0.00 in0.0 mm 0.00 in0.0 mm
02:30 PM 43.2°F6.2°C 35.4°F1.9°C 74% 4.0 mph SE6.4 kmh SE 9.0 mph14.5 kmh 30.30 in1026.1 mb 0.00 in0.0 mm 0.00 in0.0 mm 0.00 in0.0 mm
02:33 PM 43.0°F6.1°C 35.6°F2.0°C 75% 4.0 mph SE6.4 kmh SE 9.0 mph14.5 kmh 30.30 in1026.1 mb 0.00 in0.0 mm 0.00 in0.0 mm 0.00 in0.0 mm
02:36 PM 43.0°F6.1°C 35.6°F2.0°C 75% 4.0 mph SE6.4 kmh SE 7.0 mph11.3 kmh 30.30 in1026.1 mb 0.00 in0.0 mm 0.00 in0.0 mm 0.00 in0.0 mm
02:39 PM 43.0°F6.1°C 35.6°F2.0°C 75% 4.0 mph SE6.4 kmh SE 6.0 mph9.7 kmh 30.30 in1026.1 mb 0.00 in0.0 mm 0.00 in0.0 mm 0.00 in0.0 mm
02:42 PM 42.8°F6.0°C 35.1°F1.7°C 74% 4.0 mph SSE6.4 kmh SSE 6.0 mph9.7 kmh 30.30 in1026.1 mb 0.00 in0.0 mm 0.00 in0.0 mm 0.00 in0.0 mm
02:45 PM 42.8°F6.0°C 35.4°F1.9°C 75% 4.0 mph SSE6.4 kmh SSE 6.0 mph9.7 kmh 30.30 in1026.1 mb 0.00 in0.0 mm 0.00 in0.0 mm 0.00 in0.0 mm
02:48 PM 42.8°F6.0°C 35.4°F1.9°C 75% 3.0 mph SSE4.8 kmh SSE 6.0 mph9.7 kmh 30.30 in1026.1 mb 0.00 in0.0 mm 0.00 in0.0 mm 0.00 in0.0 mm
02:51 PM 42.8°F6.0°C 35.4°F1.9°C 75% 3.0 mph SE4.8 kmh SE 6.0 mph9.7 kmh 30.29 in1025.7 mb 0.00 in0.0 mm 0.00 in0.0 mm 0.00 in0.0 mm
02:54 PM 42.6°F5.9°C 35.2°F1.8°C 75% 4.0 mph SE6.4 kmh SE 7.0 mph11.3 kmh 30.29 in1025.7 mb 0.00 in0.0 mm 0.00 in0.0 mm 0.00 in0.0 mm
02:57 PM 42.6°F5.9°C 34.9°F1.6°C 74% 4.0 mph SE6.4 kmh SE 8.0 mph12.9 kmh 30.29 in1025.7 mb 0.00 in0.0 mm 0.00 in0.0 mm 0.00 in0.0 mm
03:00 PM 42.4°F5.8°C 34.7°F1.5°C 74% 5.0 mph SE8.0 kmh SE 8.0 mph12.9 kmh 30.29 in1025.7 mb 0.00 in0.0 mm 0.00 in0.0 mm 0.00 in0.0 mm
03:03 PM 42.3°F5.7°C 34.3°F1.3°C 73% 4.0 mph SE6.4 kmh SE 8.0 mph12.9 kmh 30.29 in1025.7 mb 0.00 in0.0 mm 0.00 in0.0 mm 0.00 in0.0 mm
03:06 PM 42.1°F5.6°C 34.0°F1.1°C 73% 4.0 mph SE6.4 kmh SE 6.0 mph9.7 kmh 30.29 in1025.7 mb 0.00 in0.0 mm 0.00 in0.0 mm 0.00 in0.0 mm
03:09 PM 42.1°F5.6°C 34.0°F1.1°C 73% 4.0 mph SE6.4 kmh SE 8.0 mph12.9 kmh 30.29 in1025.7 mb 0.00 in0.0 mm 0.00 in0.0 mm 0.00 in0.0 mm
03:12 PM 41.7°F5.4°C 33.8°F1.0°C 73% 3.0 mph SE4.8 kmh SE 8.0 mph12.9 kmh 30.29 in1025.7 mb 0.00 in0.0 mm 0.00 in0.0 mm 0.00 in0.0 mm
03:15 PM 41.7°F5.4°C 33.6°F0.9°C 73% 3.0 mph ESE4.8 kmh ESE 8.0 mph12.9 kmh 30.28 in1025.4 mb 0.00 in0.0 mm 0.00 in0.0 mm 0.00 in0.0 mm
03:18 PM 41.7°F5.4°C 33.6°F0.9°C 73% 2.0 mph E3.2 kmh E 6.0 mph9.7 kmh 30.28 in1025.4 mb 0.00 in0.0 mm 0.00 in0.0 mm 0.00 in0.0 mm
03:21 PM 41.5°F5.3°C 33.4°F0.8°C 73% 3.0 mph E4.8 kmh E 8.0 mph12.9 kmh 30.28 in1025.4 mb 0.00 in0.0 mm 0.00 in0.0 mm 0.00 in0.0 mm
03:24 PM 41.5°F5.3°C 33.4°F0.8°C 73% 4.0 mph E6.4 kmh E 8.0 mph12.9 kmh 30.28 in1025.4 mb 0.00 in0.0 mm 0.00 in0.0 mm 0.00 in0.0 mm
03:27 PM 41.4°F5.2°C 33.4°F0.8°C 73% 5.0 mph E8.0 kmh E 10.0 mph16.1 kmh 30.27 in1025.1 mb 0.00 in0.0 mm 0.00 in0.0 mm 0.00 in0.0 mm
03:30 PM 41.4°F5.2°C 33.3°F0.7°C 73% 5.0 mph E8.0 kmh E 11.0 mph17.7 kmh 30.27 in1025.1 mb 0.00 in0.0 mm 0.00 in0.0 mm 0.00 in0.0 mm
03:33 PM 41.2°F5.1°C 33.3°F0.7°C 73% 6.0 mph E9.7 kmh E 11.0 mph17.7 kmh 30.27 in1025.1 mb 0.00 in0.0 mm 0.00 in0.0 mm 0.00 in0.0 mm
03:36 PM 41.2°F5.1°C 32.9°F0.5°C 72% 6.0 mph E9.7 kmh E 11.0 mph17.7 kmh 30.27 in1025.1 mb 0.00 in0.0 mm 0.00 in0.0 mm 0.00 in0.0 mm
03:39 PM 41.2°F5.1°C 33.1°F0.6°C 73% 5.0 mph E8.0 kmh E 11.0 mph17.7 kmh 30.27 in1025.1 mb 0.00 in0.0 mm 0.00 in0.0 mm 0.00 in0.0 mm
03:42 PM 41.0°F5.0°C 32.7°F0.4°C 72% 5.0 mph ESE8.0 kmh ESE 11.0 mph17.7 kmh 30.27 in1025.1 mb 0.00 in0.0 mm 0.00 in0.0 mm 0.00 in0.0 mm
03:45 PM 40.8°F4.9°C 32.5°F0.3°C 72% 5.0 mph ESE8.0 kmh ESE 10.0 mph16.1 kmh 30.27 in1025.1 mb 0.00 in0.0 mm 0.00 in0.0 mm 0.00 in0.0 mm
03:48 PM 40.8°F4.9°C 32.5°F0.3°C 72% 5.0 mph ESE8.0 kmh ESE 10.0 mph16.1 kmh 30.27 in1025.1 mb 0.00 in0.0 mm 0.00 in0.0 mm 0.00 in0.0 mm
03:51 PM 40.6°F4.8°C 32.4°F0.2°C 72% 5.0 mph ESE8.0 kmh ESE 10.0 mph16.1 kmh 30.27 in1025.1 mb 0.00 in0.0 mm 0.00 in0.0 mm 0.00 in0.0 mm
03:54 PM 40.6°F4.8°C 32.4°F0.2°C 72% 5.0 mph ESE8.0 kmh ESE 10.0 mph16.1 kmh 30.27 in1025.1 mb 0.00 in0.0 mm 0.00 in0.0 mm 0.00 in0.0 mm
03:57 PM 40.6°F4.8°C 32.4°F0.2°C 72% 5.0 mph E8.0 kmh E 10.0 mph16.1 kmh 30.27 in1025.1 mb 0.00 in0.0 mm 0.00 in0.0 mm 0.00 in0.0 mm
04:00 PM 40.6°F4.8°C 32.0°F0.0°C 71% 5.0 mph E8.0 kmh E 9.0 mph14.5 kmh 30.27 in1025.1 mb 0.00 in0.0 mm 0.00 in0.0 mm 0.00 in0.0 mm
04:03 PM 40.5°F4.7°C 31.8°F-0.1°C 71% 5.0 mph ESE8.0 kmh ESE 9.0 mph14.5 kmh 30.27 in1025.1 mb 0.00 in0.0 mm 0.00 in0.0 mm 0.00 in0.0 mm
04:06 PM 40.5°F4.7°C 31.8°F-0.1°C 71% 5.0 mph ESE8.0 kmh ESE 9.0 mph14.5 kmh 30.27 in1025.1 mb 0.00 in0.0 mm 0.00 in0.0 mm 0.00 in0.0 mm
04:09 PM 40.5°F4.7°C 31.8°F-0.1°C 71% 5.0 mph ESE8.0 kmh ESE 9.0 mph14.5 kmh 30.27 in1025.1 mb 0.00 in0.0 mm 0.00 in0.0 mm 0.00 in0.0 mm
04:12 PM 40.3°F4.6°C 32.0°F0.0°C 72% 4.0 mph ESE6.4 kmh ESE 8.0 mph12.9 kmh 30.27 in1025.1 mb 0.00 in0.0 mm 0.00 in0.0 mm 0.00 in0.0 mm
04:15 PM 40.3°F4.6°C 31.6°F-0.2°C 71% 4.0 mph E6.4 kmh E 8.0 mph12.9 kmh 30.27 in1025.1 mb 0.00 in0.0 mm 0.00 in0.0 mm 0.00 in0.0 mm
04:18 PM 40.3°F4.6°C 31.6°F-0.2°C 71% 4.0 mph E6.4 kmh E 8.0 mph12.9 kmh 30.27 in1025.1 mb 0.00 in0.0 mm 0.00 in0.0 mm 0.00 in0.0 mm
04:21 PM 40.3°F4.6°C 31.6°F-0.2°C 71% 4.0 mph E6.4 kmh E 8.0 mph12.9 kmh 30.26 in1024.7 mb 0.00 in0.0 mm 0.00 in0.0 mm 0.00 in0.0 mm
04:24 PM 40.3°F4.6°C 31.6°F-0.2°C 71% 4.0 mph E6.4 kmh E 8.0 mph12.9 kmh 30.27 in1025.1 mb 0.00 in0.0 mm 0.00 in0.0 mm 0.00 in0.0 mm
04:27 PM 40.3°F4.6°C 31.6°F-0.2°C 71% 4.0 mph E6.4 kmh E 8.0 mph12.9 kmh 30.26 in1024.7 mb 0.00 in0.0 mm 0.00 in0.0 mm 0.00 in0.0 mm
04:30 PM 40.3°F4.6°C 31.8°F-0.1°C 72% 4.0 mph E6.4 kmh E 8.0 mph12.9 kmh 30.26 in1024.7 mb 0.00 in0.0 mm 0.00 in0.0 mm 0.00 in0.0 mm
04:33 PM 40.3°F4.6°C 31.5°F-0.3°C 71% 5.0 mph E8.0 kmh E 9.0 mph14.5 kmh 30.26 in1024.7 mb 0.00 in0.0 mm 0.00 in0.0 mm 0.00 in0.0 mm
04:36 PM 40.1°F4.5°C 31.8°F-0.1°C 72% 4.0 mph E6.4 kmh E 9.0 mph14.5 kmh 30.26 in1024.7 mb 0.00 in0.0 mm 0.00 in0.0 mm 0.00 in0.0 mm
04:39 PM 40.1°F4.5°C 31.8°F-0.1°C 72% 4.0 mph E6.4 kmh E 9.0 mph14.5 kmh 30.26 in1024.7 mb 0.00 in0.0 mm 0.00 in0.0 mm 0.00 in0.0 mm
04:42 PM 40.1°F4.5°C 31.8°F-0.1°C 72% 3.0 mph E4.8 kmh E 7.0 mph11.3 kmh 30.26 in1024.7 mb 0.00 in0.0 mm 0.00 in0.0 mm 0.00 in0.0 mm
04:45 PM 40.1°F4.5°C 31.8°F-0.1°C 72% 2.0 mph E3.2 kmh E 7.0 mph11.3 kmh 30.26 in1024.7 mb 0.00 in0.0 mm 0.00 in0.0 mm 0.00 in0.0 mm
04:48 PM 40.1°F4.5°C 31.8°F-0.1°C 72% 3.0 mph E4.8 kmh E 7.0 mph11.3 kmh 30.26 in1024.7 mb 0.00 in0.0 mm 0.00 in0.0 mm 0.00 in0.0 mm
04:51 PM 39.9°F4.4°C 31.6°F-0.2°C 72% 2.0 mph E3.2 kmh E 4.0 mph6.4 kmh 30.26 in1024.7 mb 0.00 in0.0 mm 0.00 in0.0 mm 0.00 in0.0 mm
04:54 PM 39.9°F4.4°C 31.6°F-0.2°C 72% 2.0 mph E3.2 kmh E 4.0 mph6.4 kmh 30.27 in1025.1 mb 0.00 in0.0 mm 0.00 in0.0 mm 0.00 in0.0 mm
04:57 PM 39.9°F4.4°C 31.6°F-0.2°C 72% 2.0 mph E3.2 kmh E 5.0 mph8.0 kmh 30.27 in1025.1 mb 0.00 in0.0 mm 0.00 in0.0 mm 0.00 in0.0 mm
05:00 PM 39.9°F4.4°C 31.3°F-0.4°C 71% 2.0 mph E3.2 kmh E 5.0 mph8.0 kmh 30.27 in1025.1 mb 0.00 in0.0 mm 0.00 in0.0 mm 0.00 in0.0 mm
05:03 PM 39.9°F4.4°C 31.6°F-0.2°C 72% 2.0 mph E3.2 kmh E 5.0 mph8.0 kmh 30.27 in1025.1 mb 0.00 in0.0 mm 0.00 in0.0 mm 0.00 in0.0 mm
05:06 PM 39.7°F4.3°C 31.1°F-0.5°C 71% 2.0 mph E3.2 kmh E 4.0 mph6.4 kmh 30.27 in1025.1 mb 0.00 in0.0 mm 0.00 in0.0 mm 0.00 in0.0 mm
05:09 PM 39.7°F4.3°C 31.1°F-0.5°C 71% 1.0 mph E1.6 kmh E 4.0 mph6.4 kmh 30.27 in1025.1 mb 0.00 in0.0 mm 0.00 in0.0 mm 0.00 in0.0 mm
05:12 PM 39.7°F4.3°C 31.1°F-0.5°C 71% 2.0 mph ENE3.2 kmh ENE 4.0 mph6.4 kmh 30.27 in1025.1 mb 0.00 in0.0 mm 0.00 in0.0 mm 0.00 in0.0 mm
05:15 PM 39.7°F4.3°C 31.1°F-0.5°C 71% 2.0 mph ENE3.2 kmh ENE 4.0 mph6.4 kmh 30.27 in1025.1 mb 0.00 in0.0 mm 0.00 in0.0 mm 0.00 in0.0 mm
05:18 PM 39.6°F4.2°C 31.3°F-0.4°C 72% 2.0 mph NE3.2 kmh NE 4.0 mph6.4 kmh 30.27 in1025.1 mb 0.00 in0.0 mm 0.00 in0.0 mm 0.00 in0.0 mm
05:21 PM 39.6°F4.2°C 31.3°F-0.4°C 72% 2.0 mph NE3.2 kmh NE 4.0 mph6.4 kmh 30.27 in1025.1 mb 0.00 in0.0 mm 0.00 in0.0 mm 0.00 in0.0 mm
05:24 PM 39.6°F4.2°C 31.3°F-0.4°C 72% 2.0 mph NE3.2 kmh NE 4.0 mph6.4 kmh 30.27 in1025.1 mb 0.00 in0.0 mm 0.00 in0.0 mm 0.00 in0.0 mm
05:27 PM 39.6°F4.2°C 31.3°F-0.4°C 72% 2.0 mph NE3.2 kmh NE 4.0 mph6.4 kmh 30.27 in1025.1 mb 0.00 in0.0 mm 0.00 in0.0 mm 0.00 in0.0 mm
05:30 PM 39.6°F4.2°C 31.3°F-0.4°C 72% 2.0 mph NE3.2 kmh NE 4.0 mph6.4 kmh 30.27 in1025.1 mb 0.00 in0.0 mm 0.00 in0.0 mm 0.00 in0.0 mm
05:33 PM 39.4°F4.1°C 31.1°F-0.5°C 72% 2.0 mph NE3.2 kmh NE 4.0 mph6.4 kmh 30.26 in1024.7 mb 0.00 in0.0 mm 0.00 in0.0 mm 0.00 in0.0 mm
05:36 PM 39.4°F4.1°C 31.5°F-0.3°C 73% 2.0 mph NE3.2 kmh NE 3.0 mph4.8 kmh 30.26 in1024.7 mb 0.00 in0.0 mm 0.00 in0.0 mm 0.00 in0.0 mm
05:39 PM 39.4°F4.1°C 31.3°F-0.4°C 73% 2.0 mph NE3.2 kmh NE 4.0 mph6.4 kmh 30.26 in1024.7 mb 0.00 in0.0 mm 0.00 in0.0 mm 0.00 in0.0 mm
05:42 PM 39.2°F4.0°C 31.3°F-0.4°C 73% 2.0 mph NE3.2 kmh NE 4.0 mph6.4 kmh 30.26 in1024.7 mb 0.00 in0.0 mm 0.00 in0.0 mm 0.00 in0.0 mm
05:45 PM 39.2°F4.0°C 31.6°F-0.2°C 74% 2.0 mph NE3.2 kmh NE 4.0 mph6.4 kmh 30.26 in1024.7 mb 0.00 in0.0 mm 0.00 in0.0 mm 0.00 in0.0 mm
05:48 PM 39.0°F3.9°C 31.5°F-0.3°C 74% 2.0 mph NE3.2 kmh NE 4.0 mph6.4 kmh 30.26 in1024.7 mb 0.00 in0.0 mm 0.00 in0.0 mm 0.00 in0.0 mm
05:51 PM 39.0°F3.9°C 31.5°F-0.3°C 74% 2.0 mph NE3.2 kmh NE 4.0 mph6.4 kmh 30.26 in1024.7 mb 0.00 in0.0 mm 0.00 in0.0 mm 0.00 in0.0 mm
05:54 PM 39.0°F3.9°C 31.5°F-0.3°C 74% 2.0 mph NE3.2 kmh NE 4.0 mph6.4 kmh 30.26 in1024.7 mb 0.00 in0.0 mm 0.00 in0.0 mm 0.00 in0.0 mm
05:57 PM 39.0°F3.9°C 31.5°F-0.3°C 74% 2.0 mph NE3.2 kmh NE 3.0 mph4.8 kmh 30.26 in1024.7 mb 0.00 in0.0 mm 0.00 in0.0 mm 0.00 in0.0 mm
06:00 PM 39.0°F3.9°C 31.8°F-0.1°C 75% 2.0 mph ENE3.2 kmh ENE 4.0 mph6.4 kmh 30.26 in1024.7 mb 0.00 in0.0 mm 0.00 in0.0 mm 0.00 in0.0 mm
06:03 PM 39.0°F3.9°C 31.8°F-0.1°C 75% 2.0 mph ENE3.2 kmh ENE 4.0 mph6.4 kmh 30.26 in1024.7 mb 0.00 in0.0 mm 0.00 in0.0 mm 0.00 in0.0 mm
06:06 PM 38.8°F3.8°C 31.6°F-0.2°C 75% 2.0 mph ENE3.2 kmh ENE 4.0 mph6.4 kmh 30.26 in1024.7 mb 0.00 in0.0 mm 0.00 in0.0 mm 0.00 in0.0 mm
06:09 PM 38.8°F3.8°C 31.6°F-0.2°C 75% 2.0 mph ENE3.2 kmh ENE 4.0 mph6.4 kmh 30.26 in1024.7 mb 0.00 in0.0 mm 0.00 in0.0 mm 0.00 in0.0 mm
06:12 PM 38.8°F3.8°C 31.6°F-0.2°C 75% 2.0 mph ENE3.2 kmh ENE 4.0 mph6.4 kmh 30.26 in1024.7 mb 0.00 in0.0 mm 0.00 in0.0 mm 0.00 in0.0 mm
06:15 PM 38.8°F3.8°C 31.6°F-0.2°C 75% 2.0 mph ENE3.2 kmh ENE 4.0 mph6.4 kmh 30.26 in1024.7 mb 0.00 in0.0 mm 0.00 in0.0 mm 0.00 in0.0 mm
06:18 PM 38.8°F3.8°C 31.6°F-0.2°C 75% 2.0 mph ENE3.2 kmh ENE 3.0 mph4.8 kmh 30.26 in1024.7 mb 0.00 in0.0 mm 0.00 in0.0 mm 0.00 in0.0 mm
06:21 PM 38.8°F3.8°C 31.6°F-0.2°C 75% 2.0 mph ENE3.2 kmh ENE 3.0 mph4.8 kmh 30.26 in1024.7 mb 0.00 in0.0 mm 0.00 in0.0 mm 0.00 in0.0 mm
06:24 PM 38.8°F3.8°C 31.6°F-0.2°C 75% 2.0 mph ENE3.2 kmh ENE 3.0 mph4.8 kmh 30.26 in1024.7 mb 0.00 in0.0 mm 0.00 in0.0 mm 0.00 in0.0 mm
06:27 PM 38.8°F3.8°C 31.6°F-0.2°C 75% 2.0 mph ENE3.2 kmh ENE 4.0 mph6.4 kmh 30.26 in1024.7 mb 0.00 in0.0 mm 0.00 in0.0 mm 0.00 in0.0 mm
06:30 PM 38.8°F3.8°C 31.6°F-0.2°C 75% 2.0 mph ENE3.2 kmh ENE 4.0 mph6.4 kmh 30.26 in1024.7 mb 0.00 in0.0 mm 0.00 in0.0 mm 0.00 in0.0 mm
06:33 PM 38.8°F3.8°C 31.6°F-0.2°C 75% 2.0 mph ENE3.2 kmh ENE 4.0 mph6.4 kmh 30.26 in1024.7 mb 0.00 in0.0 mm 0.00 in0.0 mm 0.00 in0.0 mm
06:36 PM 38.8°F3.8°C 31.6°F-0.2°C 75% 1.0 mph ENE1.6 kmh ENE 4.0 mph6.4 kmh 30.26 in1024.7 mb 0.00 in0.0 mm 0.00 in0.0 mm 0.00 in0.0 mm
06:39 PM 38.8°F3.8°C 31.6°F-0.2°C 75% 1.0 mph ENE1.6 kmh ENE 3.0 mph4.8 kmh 30.26 in1024.7 mb 0.00 in0.0 mm 0.00 in0.0 mm 0.00 in0.0 mm
06:42 PM 38.7°F3.7°C 31.5°F-0.3°C 75% 2.0 mph ENE3.2 kmh ENE 3.0 mph4.8 kmh 30.25 in1024.4 mb 0.00 in0.0 mm 0.00 in0.0 mm 0.00 in0.0 mm
06:45 PM 38.7°F3.7°C 31.8°F-0.1°C 76% 2.0 mph ENE3.2 kmh ENE 3.0 mph4.8 kmh 30.25 in1024.4 mb 0.00 in0.0 mm 0.00 in0.0 mm 0.00 in0.0 mm
06:48 PM 38.7°F3.7°C 31.8°F-0.1°C 76% 2.0 mph ENE3.2 kmh ENE 3.0 mph4.8 kmh 30.25 in1024.4 mb 0.00 in0.0 mm 0.00 in0.0 mm 0.00 in0.0 mm
06:51 PM 38.7°F3.7°C 31.8°F-0.1°C 76% 2.0 mph ENE3.2 kmh ENE 3.0 mph4.8 kmh 30.25 in1024.4 mb 0.00 in0.0 mm 0.00 in0.0 mm 0.00 in0.0 mm
06:54 PM 38.7°F3.7°C 31.6°F-0.2°C 76% 1.0 mph ENE1.6 kmh ENE 3.0 mph4.8 kmh 30.25 in1024.4 mb 0.00 in0.0 mm 0.00 in0.0 mm 0.00 in0.0 mm
06:57 PM 38.7°F3.7°C 31.6°F-0.2°C 76% 1.0 mph ENE1.6 kmh ENE 3.0 mph4.8 kmh 30.25 in1024.4 mb 0.00 in0.0 mm 0.00 in0.0 mm 0.00 in0.0 mm
07:00 PM 38.5°F3.6°C 31.6°F-0.2°C 76% 1.0 mph ENE1.6 kmh ENE 2.0 mph3.2 kmh 30.25 in1024.4 mb 0.00 in0.0 mm 0.00 in0.0 mm 0.00 in0.0 mm
07:03 PM 38.5°F3.6°C 31.6°F-0.2°C 76% 1.0 mph ENE1.6 kmh ENE 2.0 mph3.2 kmh 30.25 in1024.4 mb 0.00 in0.0 mm 0.00 in0.0 mm 0.00 in0.0 mm
07:06 PM 38.5°F3.6°C 31.6°F-0.2°C 76% 1.0 mph ENE1.6 kmh ENE 3.0 mph4.8 kmh 30.25 in1024.4 mb 0.00 in0.0 mm 0.00 in0.0 mm 0.00 in0.0 mm
07:09 PM 38.5°F3.6°C 31.5°F-0.3°C 76% 1.0 mph ENE1.6 kmh ENE 4.0 mph6.4 kmh 30.26 in1024.7 mb 0.00 in0.0 mm 0.00 in0.0 mm 0.00 in0.0 mm
07:12 PM 38.5°F3.6°C 31.8°F-0.1°C 77% 1.0 mph ENE1.6 kmh ENE 4.0 mph6.4 kmh 30.26 in1024.7 mb 0.00 in0.0 mm 0.00 in0.0 mm 0.00 in0.0 mm
07:15 PM 38.5°F3.6°C 31.8°F-0.1°C 77% 2.0 mph ENE3.2 kmh ENE 4.0 mph6.4 kmh 30.26 in1024.7 mb 0.00 in0.0 mm 0.00 in0.0 mm 0.00 in0.0 mm
07:18 PM 38.5°F3.6°C 32.0°F0.0°C 77% 2.0 mph ENE3.2 kmh ENE 3.0 mph4.8 kmh 30.26 in1024.7 mb 0.00 in0.0 mm 0.00 in0.0 mm 0.00 in0.0 mm
07:21 PM 38.5°F3.6°C 32.0°F0.0°C 77% 2.0 mph ENE3.2 kmh ENE 3.0 mph4.8 kmh 30.25 in1024.4 mb 0.00 in0.0 mm 0.00 in0.0 mm 0.00 in0.0 mm
07:24 PM 38.5°F3.6°C 32.0°F0.0°C 77% 2.0 mph ENE3.2 kmh ENE 3.0 mph4.8 kmh 30.25 in1024.4 mb 0.00 in0.0 mm 0.00 in0.0 mm 0.00 in0.0 mm
07:27 PM 38.5°F3.6°C 32.0°F0.0°C 77% 2.0 mph ENE3.2 kmh ENE 3.0 mph4.8 kmh 30.26 in1024.7 mb 0.00 in0.0 mm 0.00 in0.0 mm 0.00 in0.0 mm
07:30 PM 38.5°F3.6°C 32.0°F0.0°C 77% 1.0 mph ENE1.6 kmh ENE 3.0 mph4.8 kmh 30.26 in1024.7 mb 0.00 in0.0 mm 0.00 in0.0 mm 0.00 in0.0 mm
07:33 PM 38.5°F3.6°C 32.0°F0.0°C 77% 2.0 mph NE3.2 kmh NE 3.0 mph4.8 kmh 30.25 in1024.4 mb 0.00 in0.0 mm 0.00 in0.0 mm 0.00 in0.0 mm
07:36 PM 38.5°F3.6°C 32.2°F0.1°C 78% 2.0 mph NNE3.2 kmh NNE 3.0 mph4.8 kmh 30.26 in1024.7 mb 0.00 in0.0 mm 0.00 in0.0 mm 0.00 in0.0 mm
07:39 PM 38.5°F3.6°C 32.2°F0.1°C 78% 2.0 mph N3.2 kmh N 3.0 mph4.8 kmh 30.26 in1024.7 mb 0.00 in0.0 mm 0.00 in0.0 mm 0.00 in0.0 mm
07:42 PM 38.5°F3.6°C 32.2°F0.1°C 78% 2.0 mph N3.2 kmh N 4.0 mph6.4 kmh 30.26 in1024.7 mb 0.00 in0.0 mm 0.00 in0.0 mm 0.00 in0.0 mm
07:45 PM 38.3°F3.5°C 32.0°F0.0°C 78% 3.0 mph N4.8 kmh N 6.0 mph9.7 kmh 30.26 in1024.7 mb 0.00 in0.0 mm 0.00 in0.0 mm 0.00 in0.0 mm
07:48 PM 38.3°F3.5°C 32.0°F0.0°C 78% 3.0 mph N4.8 kmh N 6.0 mph9.7 kmh 30.25 in1024.4 mb 0.00 in0.0 mm 0.00 in0.0 mm 0.00 in0.0 mm
07:51 PM 38.3°F3.5°C 32.0°F0.0°C 78% 3.0 mph N4.8 kmh N 6.0 mph9.7 kmh 30.25 in1024.4 mb 0.00 in0.0 mm 0.00 in0.0 mm 0.00 in0.0 mm
07:54 PM 38.3°F3.5°C 32.4°F0.2°C 79% 3.0 mph N4.8 kmh N 6.0 mph9.7 kmh 30.25 in1024.4 mb 0.00 in0.0 mm 0.00 in0.0 mm 0.00 in0.0 mm
07:57 PM 38.1°F3.4°C 32.2°F0.1°C 79% 2.0 mph NW3.2 kmh NW 4.0 mph6.4 kmh 30.25 in1024.4 mb 0.00 in0.0 mm 0.00 in0.0 mm 0.00 in0.0 mm
08:00 PM 38.1°F3.4°C 32.2°F0.1°C 79% 2.0 mph WNW3.2 kmh WNW 4.0 mph6.4 kmh 30.25 in1024.4 mb 0.00 in0.0 mm 0.00 in0.0 mm 0.00 in0.0 mm
08:03 PM 38.1°F3.4°C 32.5°F0.3°C 80% 2.0 mph W3.2 kmh W 4.0 mph6.4 kmh 30.25 in1024.4 mb 0.00 in0.0 mm 0.00 in0.0 mm 0.00 in0.0 mm
08:06 PM 37.9°F3.3°C 32.4°F0.2°C 80% 1.0 mph W1.6 kmh W 4.0 mph6.4 kmh 30.25 in1024.4 mb 0.00 in0.0 mm 0.00 in0.0 mm 0.00 in0.0 mm
08:09 PM 37.9°F3.3°C 32.4°F0.2°C 80% 1.0 mph WNW1.6 kmh WNW 3.0 mph4.8 kmh 30.25 in1024.4 mb 0.00 in0.0 mm 0.00 in0.0 mm 0.00 in0.0 mm
08:12 PM 37.8°F3.2°C 32.5°F0.3°C 81% 1.0 mph WNW1.6 kmh WNW 3.0 mph4.8 kmh 30.25 in1024.4 mb 0.00 in0.0 mm 0.00 in0.0 mm 0.00 in0.0 mm
08:15 PM 37.6°F3.1°C 32.4°F0.2°C 81% 1.0 mph WNW1.6 kmh WNW 3.0 mph4.8 kmh 30.25 in1024.4 mb 0.01 in0.3 mm 0.20 in5.1 mm 0.01 in0.3 mm
08:18 PM 37.6°F3.1°C 32.5°F0.3°C 82% 1.0 mph WNW1.6 kmh WNW 3.0 mph4.8 kmh 30.25 in1024.4 mb 0.01 in0.3 mm 0.00 in0.0 mm 0.01 in0.3 mm
08:21 PM 37.4°F3.0°C 32.7°F0.4°C 83% 1.0 mph WNW1.6 kmh WNW 3.0 mph4.8 kmh 30.25 in1024.4 mb 0.01 in0.3 mm 0.00 in0.0 mm 0.01 in0.3 mm
08:24 PM 37.2°F2.9°C 32.9°F0.5°C 84% 1.0 mph WNW1.6 kmh WNW 3.0 mph4.8 kmh 30.25 in1024.4 mb 0.01 in0.3 mm 0.00 in0.0 mm 0.01 in0.3 mm
08:27 PM 37.0°F2.8°C 32.7°F0.4°C 84% 1.0 mph WNW1.6 kmh WNW 3.0 mph4.8 kmh 30.25 in1024.4 mb 0.01 in0.3 mm 0.00 in0.0 mm 0.01 in0.3 mm
08:30 PM 37.0°F2.8°C 32.5°F0.3°C 84% 2.0 mph W3.2 kmh W 3.0 mph4.8 kmh 30.25 in1024.4 mb 0.01 in0.3 mm 0.00 in0.0 mm 0.01 in0.3 mm
08:33 PM 37.0°F2.8°C 32.9°F0.5°C 85% 1.0 mph W1.6 kmh W 3.0 mph4.8 kmh 30.25 in1024.4 mb 0.01 in0.3 mm 0.00 in0.0 mm 0.01 in0.3 mm
08:36 PM 36.9°F2.7°C 32.9°F0.5°C 85% 1.0 mph W1.6 kmh W 3.0 mph4.8 kmh 30.25 in1024.4 mb 0.02 in0.5 mm 0.20 in5.1 mm 0.02 in0.5 mm
08:39 PM 36.9°F2.7°C 32.9°F0.5°C 85% 1.0 mph W1.6 kmh W 3.0 mph4.8 kmh 30.25 in1024.4 mb 0.02 in0.5 mm 0.00 in0.0 mm 0.02 in0.5 mm
08:42 PM 36.9°F2.7°C 33.1°F0.6°C 86% 2.0 mph W3.2 kmh W 3.0 mph4.8 kmh 30.25 in1024.4 mb 0.02 in0.5 mm 0.00 in0.0 mm 0.02 in0.5 mm
08:45 PM 36.7°F2.6°C 32.9°F0.5°C 86% 2.0 mph W3.2 kmh W 3.0 mph4.8 kmh 30.25 in1024.4 mb 0.02 in0.5 mm 0.00 in0.0 mm 0.02 in0.5 mm
08:48 PM 36.7°F2.6°C 33.3°F0.7°C 87% 2.0 mph W3.2 kmh W 3.0 mph4.8 kmh 30.25 in1024.4 mb 0.02 in0.5 mm 0.00 in0.0 mm 0.02 in0.5 mm
08:51 PM 36.7°F2.6°C 33.1°F0.6°C 87% 2.0 mph WSW3.2 kmh WSW 5.0 mph8.0 kmh 30.25 in1024.4 mb 0.02 in0.5 mm 0.00 in0.0 mm 0.02 in0.5 mm
08:54 PM 36.5°F2.5°C 33.1°F0.6°C 87% 2.0 mph WSW3.2 kmh WSW 5.0 mph8.0 kmh 30.25 in1024.4 mb 0.02 in0.5 mm 0.00 in0.0 mm 0.02 in0.5 mm
08:57 PM 36.5°F2.5°C 33.1°F0.6°C 87% 2.0 mph WSW3.2 kmh WSW 5.0 mph8.0 kmh 30.25 in1024.4 mb 0.02 in0.5 mm 0.00 in0.0 mm 0.02 in0.5 mm
09:00 PM 36.3°F2.4°C 33.3°F0.7°C 88% 2.0 mph WSW3.2 kmh WSW 4.0 mph6.4 kmh 30.24 in1024.0 mb 0.02 in0.5 mm 0.00 in0.0 mm 0.02 in0.5 mm
09:03 PM 36.3°F2.4°C 33.1°F0.6°C 88% 2.0 mph WSW3.2 kmh WSW 4.0 mph6.4 kmh 30.24 in1024.0 mb 0.02 in0.5 mm 0.00 in0.0 mm 0.02 in0.5 mm
09:06 PM 36.3°F2.4°C 33.1°F0.6°C 88% 2.0 mph WSW3.2 kmh WSW 4.0 mph6.4 kmh 30.24 in1024.0 mb 0.02 in0.5 mm 0.00 in0.0 mm 0.02 in0.5 mm
09:09 PM 36.1°F2.3°C 32.9°F0.5°C 88% 2.0 mph WSW3.2 kmh WSW 4.0 mph6.4 kmh 30.24 in1024.0 mb 0.02 in0.5 mm 0.00 in0.0 mm 0.02 in0.5 mm
09:12 PM 36.1°F2.3°C 32.9°F0.5°C 88% 2.0 mph WSW3.2 kmh WSW 4.0 mph6.4 kmh 30.24 in1024.0 mb 0.02 in0.5 mm 0.00 in0.0 mm 0.02 in0.5 mm
09:15 PM 36.1°F2.3°C 33.3°F0.7°C 89% 2.0 mph WSW3.2 kmh WSW 4.0 mph6.4 kmh 30.24 in1024.0 mb 0.02 in0.5 mm 0.00 in0.0 mm 0.03 in0.8 mm
09:18 PM 36.0°F2.2°C 33.1°F0.6°C 89% 2.0 mph WSW3.2 kmh WSW 3.0 mph4.8 kmh 30.24 in1024.0 mb 0.02 in0.5 mm 0.00 in0.0 mm 0.03 in0.8 mm
09:21 PM 36.0°F2.2°C 33.1°F0.6°C 89% 1.0 mph WSW1.6 kmh WSW 3.0 mph4.8 kmh 30.24 in1024.0 mb 0.02 in0.5 mm 0.00 in0.0 mm 0.03 in0.8 mm
09:24 PM 36.0°F2.2°C 32.9°F0.5°C 89% 1.0 mph WSW1.6 kmh WSW 3.0 mph4.8 kmh 30.24 in1024.0 mb 0.02 in0.5 mm 0.00 in0.0 mm 0.03 in0.8 mm
09:27 PM 35.8°F2.1°C 32.9°F0.5°C 89% 1.0 mph WSW1.6 kmh WSW 3.0 mph4.8 kmh 30.24 in1024.0 mb 0.02 in0.5 mm 0.00 in0.0 mm 0.03 in0.8 mm
09:30 PM 35.8°F2.1°C 32.9°F0.5°C 89% 2.0 mph WSW3.2 kmh WSW 3.0 mph4.8 kmh 30.24 in1024.0 mb 0.03 in0.8 mm 0.20 in5.1 mm 0.04 in1.0 mm
09:33 PM 35.8°F2.1°C 32.7°F0.4°C 89% 1.0 mph WSW1.6 kmh WSW 3.0 mph4.8 kmh 30.23 in1023.7 mb 0.03 in0.8 mm 0.00 in0.0 mm 0.04 in1.0 mm
09:36 PM 35.6°F2.0°C 32.9°F0.5°C 90% 1.0 mph WSW1.6 kmh WSW 3.0 mph4.8 kmh 30.23 in1023.7 mb 0.02 in0.5 mm 0.00 in0.0 mm 0.04 in1.0 mm
09:39 PM 35.6°F2.0°C 32.9°F0.5°C 90% 1.0 mph W1.6 kmh W 3.0 mph4.8 kmh 30.23 in1023.7 mb 0.02 in0.5 mm 0.00 in0.0 mm 0.04 in1.0 mm
09:42 PM 35.6°F2.0°C 32.9°F0.5°C 90% 1.0 mph W1.6 kmh W 4.0 mph6.4 kmh 30.23 in1023.7 mb 0.02 in0.5 mm 0.00 in0.0 mm 0.04 in1.0 mm
09:45 PM 35.6°F2.0°C 32.9°F0.5°C 90% 1.0 mph SW1.6 kmh SW 4.0 mph6.4 kmh 30.23 in1023.7 mb 0.03 in0.8 mm 0.20 in5.1 mm 0.05 in1.3 mm
09:48 PM 35.4°F1.9°C 32.9°F0.5°C 90% 1.0 mph SW1.6 kmh SW 4.0 mph6.4 kmh 30.23 in1023.7 mb 0.03 in0.8 mm 0.00 in0.0 mm 0.05 in1.3 mm
09:51 PM 35.4°F1.9°C 32.9°F0.5°C 90% 2.0 mph SSW3.2 kmh SSW 4.0 mph6.4 kmh 30.23 in1023.7 mb 0.03 in0.8 mm 0.00 in0.0 mm 0.05 in1.3 mm
09:54 PM 35.4°F1.9°C 32.7°F0.4°C 90% 2.0 mph SW3.2 kmh SW 3.0 mph4.8 kmh 30.23 in1023.7 mb 0.03 in0.8 mm 0.00 in0.0 mm 0.05 in1.3 mm
09:57 PM 35.4°F1.9°C 32.7°F0.4°C 90% 2.0 mph SW3.2 kmh SW 3.0 mph4.8 kmh 30.23 in1023.7 mb 0.04 in1.0 mm 0.20 in5.1 mm 0.06 in1.5 mm
10:00 PM 35.2°F1.8°C 32.7°F0.4°C 90% 2.0 mph SSW3.2 kmh SSW 4.0 mph6.4 kmh 30.23 in1023.7 mb 0.03 in0.8 mm 0.00 in0.0 mm 0.06 in1.5 mm
10:03 PM 35.2°F1.8°C 32.9°F0.5°C 91% 2.0 mph SW3.2 kmh SW 4.0 mph6.4 kmh 30.23 in1023.7 mb 0.03 in0.8 mm 0.00 in0.0 mm 0.06 in1.5 mm
10:06 PM 35.2°F1.8°C 32.9°F0.5°C 91% 1.0 mph SSW1.6 kmh SSW 4.0 mph6.4 kmh 30.23 in1023.7 mb 0.03 in0.8 mm 0.00 in0.0 mm 0.06 in1.5 mm
10:09 PM 35.2°F1.8°C 32.9°F0.5°C 91% 1.0 mph SW1.6 kmh SW 4.0 mph6.4 kmh 30.23 in1023.7 mb 0.03 in0.8 mm 0.00 in0.0 mm 0.06 in1.5 mm
10:12 PM 35.2°F1.8°C 32.9°F0.5°C 91% 1.0 mph SW1.6 kmh SW 2.0 mph3.2 kmh 30.23 in1023.7 mb 0.03 in0.8 mm 0.00 in0.0 mm 0.06 in1.5 mm
10:15 PM 35.2°F1.8°C 32.9°F0.5°C 91% 1.0 mph SW1.6 kmh SW 3.0 mph4.8 kmh 30.23 in1023.7 mb 0.02 in0.5 mm 0.00 in0.0 mm 0.06 in1.5 mm
10:18 PM 35.2°F1.8°C 32.9°F0.5°C 91% 1.0 mph SW1.6 kmh SW 3.0 mph4.8 kmh 30.22 in1023.4 mb 0.02 in0.5 mm 0.00 in0.0 mm 0.06 in1.5 mm
10:21 PM 35.1°F1.7°C 32.7°F0.4°C 91% 2.0 mph SW3.2 kmh SW 3.0 mph4.8 kmh 30.22 in1023.4 mb 0.02 in0.5 mm 0.00 in0.0 mm 0.06 in1.5 mm
10:24 PM 35.1°F1.7°C 32.7°F0.4°C 91% 2.0 mph WSW3.2 kmh WSW 3.0 mph4.8 kmh 30.22 in1023.4 mb 0.02 in0.5 mm 0.00 in0.0 mm 0.06 in1.5 mm
10:27 PM 35.1°F1.7°C 32.7°F0.4°C 91% 2.0 mph WSW3.2 kmh WSW 3.0 mph4.8 kmh 30.22 in1023.4 mb 0.02 in0.5 mm 0.00 in0.0 mm 0.06 in1.5 mm
10:30 PM 35.1°F1.7°C 32.7°F0.4°C 91% 2.0 mph WSW3.2 kmh WSW 3.0 mph4.8 kmh 30.22 in1023.4 mb 0.02 in0.5 mm 0.00 in0.0 mm 0.06 in1.5 mm
10:33 PM 35.1°F1.7°C 33.1°F0.6°C 92% 2.0 mph WSW3.2 kmh WSW 3.0 mph4.8 kmh 30.22 in1023.4 mb 0.02 in0.5 mm 0.00 in0.0 mm 0.06 in1.5 mm
10:36 PM 35.1°F1.7°C 32.9°F0.5°C 92% 1.0 mph WSW1.6 kmh WSW 3.0 mph4.8 kmh 30.22 in1023.4 mb 0.02 in0.5 mm 0.00 in0.0 mm 0.06 in1.5 mm
10:39 PM 35.1°F1.7°C 32.9°F0.5°C 92% 1.0 mph WSW1.6 kmh WSW 3.0 mph4.8 kmh 30.22 in1023.4 mb 0.02 in0.5 mm 0.00 in0.0 mm 0.06 in1.5 mm
10:42 PM 35.1°F1.7°C 32.9°F0.5°C 92% 1.0 mph WSW1.6 kmh WSW 2.0 mph3.2 kmh 30.22 in1023.4 mb 0.02 in0.5 mm 0.00 in0.0 mm 0.06 in1.5 mm
10:45 PM 34.9°F1.6°C 32.9°F0.5°C 92% 1.0 mph WSW1.6 kmh WSW 3.0 mph4.8 kmh 30.21 in1023.0 mb 0.02 in0.5 mm 0.00 in0.0 mm 0.06 in1.5 mm
10:48 PM 34.9°F1.6°C 32.9°F0.5°C 92% 1.0 mph WSW1.6 kmh WSW 3.0 mph4.8 kmh 30.21 in1023.0 mb 0.02 in0.5 mm 0.00 in0.0 mm 0.06 in1.5 mm
10:51 PM 34.9°F1.6°C 32.9°F0.5°C 92% 1.0 mph WSW1.6 kmh WSW 4.0 mph6.4 kmh 30.21 in1023.0 mb 0.02 in0.5 mm 0.00 in0.0 mm 0.06 in1.5 mm
10:54 PM 34.9°F1.6°C 32.9°F0.5°C 92% 1.0 mph WSW1.6 kmh WSW 4.0 mph6.4 kmh 30.21 in1023.0 mb 0.02 in0.5 mm 0.00 in0.0 mm 0.06 in1.5 mm
10:57 PM 34.9°F1.6°C 32.9°F0.5°C 92% 1.0 mph WSW1.6 kmh WSW 4.0 mph6.4 kmh 30.21 in1023.0 mb 0.01 in0.3 mm 0.00 in0.0 mm 0.06 in1.5 mm
11:00 PM 34.9°F1.6°C 32.9°F0.5°C 92% 1.0 mph WSW1.6 kmh WSW 4.0 mph6.4 kmh 30.21 in1023.0 mb 0.01 in0.3 mm 0.00 in0.0 mm 0.06 in1.5 mm
11:03 PM 34.9°F1.6°C 32.9°F0.5°C 92% 1.0 mph WSW1.6 kmh WSW 3.0 mph4.8 kmh 30.21 in1023.0 mb 0.01 in0.3 mm 0.00 in0.0 mm 0.06 in1.5 mm
11:06 PM 34.9°F1.6°C 32.7°F0.4°C 92% 1.0 mph WSW1.6 kmh WSW 2.0 mph3.2 kmh 30.21 in1023.0 mb 0.01 in0.3 mm 0.00 in0.0 mm 0.06 in1.5 mm
11:09 PM 34.9°F1.6°C 32.7°F0.4°C 92% 1.0 mph WSW1.6 kmh WSW 3.0 mph4.8 kmh 30.21 in1023.0 mb 0.01 in0.3 mm 0.00 in0.0 mm 0.06 in1.5 mm
11:12 PM 34.9°F1.6°C 32.9°F0.5°C 93% 1.0 mph WSW1.6 kmh WSW 3.0 mph4.8 kmh 30.21 in1023.0 mb 0.01 in0.3 mm 0.00 in0.0 mm 0.06 in1.5 mm
11:15 PM 34.9°F1.6°C 32.9°F0.5°C 93% 2.0 mph WSW3.2 kmh WSW 3.0 mph4.8 kmh 30.21 in1023.0 mb 0.02 in0.5 mm 0.20 in5.1 mm 0.07 in1.8 mm
11:18 PM 34.7°F1.5°C 32.9°F0.5°C 93% 2.0 mph W3.2 kmh W 3.0 mph4.8 kmh 30.21 in1023.0 mb 0.02 in0.5 mm 0.00 in0.0 mm 0.07 in1.8 mm
11:21 PM 34.9°F1.6°C 32.9°F0.5°C 93% 1.0 mph W1.6 kmh W 3.0 mph4.8 kmh 30.21 in1023.0 mb 0.02 in0.5 mm 0.00 in0.0 mm 0.07 in1.8 mm
11:24 PM 34.7°F1.5°C 32.9°F0.5°C 93% 1.0 mph W1.6 kmh W 3.0 mph4.8 kmh 30.21 in1023.0 mb 0.02 in0.5 mm 0.00 in0.0 mm 0.07 in1.8 mm
11:27 PM 34.7°F1.5°C 32.9°F0.5°C 93% 1.0 mph WSW1.6 kmh WSW 3.0 mph4.8 kmh 30.20 in1022.7 mb 0.02 in0.5 mm 0.00 in0.0 mm 0.07 in1.8 mm
11:30 PM 34.7°F1.5°C 32.9°F0.5°C 93% 1.0 mph WSW1.6 kmh WSW 3.0 mph4.8 kmh 30.20 in1022.7 mb 0.02 in0.5 mm 0.00 in0.0 mm 0.08 in2.0 mm
11:33 PM 34.7°F1.5°C 32.9°F0.5°C 93% 1.0 mph WSW1.6 kmh WSW 3.0 mph4.8 kmh 30.20 in1022.7 mb 0.02 in0.5 mm 0.00 in0.0 mm 0.08 in2.0 mm
11:36 PM 34.7°F1.5°C 32.9°F0.5°C 93% 1.0 mph WSW1.6 kmh WSW 3.0 mph4.8 kmh 30.20 in1022.7 mb 0.02 in0.5 mm 0.00 in0.0 mm 0.08 in2.0 mm
11:39 PM 34.7°F1.5°C 32.9°F0.5°C 93% 1.0 mph WSW1.6 kmh WSW 3.0 mph4.8 kmh 30.20 in1022.7 mb 0.02 in0.5 mm 0.00 in0.0 mm 0.08 in2.0 mm
11:42 PM 34.7°F1.5°C 32.9°F0.5°C 93% 2.0 mph WSW3.2 kmh WSW 3.0 mph4.8 kmh 30.20 in1022.7 mb 0.02 in0.5 mm 0.00 in0.0 mm 0.08 in2.0 mm
11:45 PM 34.7°F1.5°C 32.9°F0.5°C 93% 2.0 mph SW3.2 kmh SW 3.0 mph4.8 kmh 30.20 in1022.7 mb 0.02 in0.5 mm 0.00 in0.0 mm 0.09 in2.3 mm
11:48 PM 34.7°F1.5°C 32.9°F0.5°C 93% 2.0 mph WSW3.2 kmh WSW 3.0 mph4.8 kmh 30.20 in1022.7 mb 0.02 in0.5 mm 0.00 in0.0 mm 0.09 in2.3 mm
11:51 PM 34.7°F1.5°C 32.9°F0.5°C 93% 2.0 mph WSW3.2 kmh WSW 3.0 mph4.8 kmh 30.20 in1022.7 mb 0.02 in0.5 mm 0.00 in0.0 mm 0.09 in2.3 mm
11:54 PM 34.7°F1.5°C 32.9°F0.5°C 93% 2.0 mph WSW3.2 kmh WSW 3.0 mph4.8 kmh 30.20 in1022.7 mb 0.03 in0.8 mm 0.20 in5.1 mm 0.09 in2.3 mm
11:57 PM 34.5°F1.4°C 32.7°F0.4°C 93% 2.0 mph WSW3.2 kmh WSW 3.0 mph4.8 kmh 30.20 in1022.7 mb 0.03 in0.8 mm 0.00 in0.0 mm 0.09 in2.3 mm